<?xml version="1.0" encoding="UTF-8" standalone="no" ?>
<gpx xmlns="http://www.topografix.com/GPX/1/1" xmlns:xsi="http://www.w3.org/2001/XMLSchema-instance" xsi:schemaLocation="http://www.topografix.com/GPX/1/1 http://www.topografix.com/GPX/1/1/gpx.xsd" version="1.1" creator="VisuGPX - https://www.visugpx.com">
  <metadata>
    <name>Rando St Pantaléon</name>
    <desc><![CDATA[Randonnée du Mercredi 11 Janvier 2016 à Saint Pantaléon]]></desc>
  </metadata>
  <trk>
    <name><![CDATA[ST PANTALEON]]></name>
    <trkseg>
      <trkpt lat="43.88224" lon="5.2138">
        <ele>230.37</ele>
        <time>2017-01-11T08:33:43Z</time>
      </trkpt>
      <trkpt lat="43.8823" lon="5.21383">
        <ele>230.37</ele>
        <time>2017-01-11T08:33:52Z</time>
      </trkpt>
      <trkpt lat="43.88237" lon="5.21392">
        <ele>230.85</ele>
        <time>2017-01-11T08:34:05Z</time>
      </trkpt>
      <trkpt lat="43.8824" lon="5.21396">
        <ele>230.37</ele>
        <time>2017-01-11T08:34:09Z</time>
      </trkpt>
      <trkpt lat="43.88256" lon="5.21414">
        <ele>227.49</ele>
        <time>2017-01-11T08:34:26Z</time>
      </trkpt>
      <trkpt lat="43.88273" lon="5.21436">
        <ele>225.09</ele>
        <time>2017-01-11T08:34:46Z</time>
      </trkpt>
      <trkpt lat="43.88287" lon="5.21459">
        <ele>222.2</ele>
        <time>2017-01-11T08:35:03Z</time>
      </trkpt>
      <trkpt lat="43.88299" lon="5.21475">
        <ele>222.68</ele>
        <time>2017-01-11T08:35:18Z</time>
      </trkpt>
      <trkpt lat="43.88311" lon="5.21499">
        <ele>221.72</ele>
        <time>2017-01-11T08:35:35Z</time>
      </trkpt>
      <trkpt lat="43.88327" lon="5.21511">
        <ele>220.76</ele>
        <time>2017-01-11T08:35:53Z</time>
      </trkpt>
      <trkpt lat="43.88351" lon="5.21505">
        <ele>222.68</ele>
        <time>2017-01-11T08:36:14Z</time>
      </trkpt>
      <trkpt lat="43.88373" lon="5.2151">
        <ele>224.61</ele>
        <time>2017-01-11T08:36:35Z</time>
      </trkpt>
      <trkpt lat="43.88397" lon="5.21518">
        <ele>225.57</ele>
        <time>2017-01-11T08:36:57Z</time>
      </trkpt>
      <trkpt lat="43.8842" lon="5.21521">
        <ele>227.97</ele>
        <time>2017-01-11T08:37:16Z</time>
      </trkpt>
      <trkpt lat="43.8844" lon="5.21524">
        <ele>228.93</ele>
        <time>2017-01-11T08:37:34Z</time>
      </trkpt>
      <trkpt lat="43.88462" lon="5.21525">
        <ele>229.89</ele>
        <time>2017-01-11T08:37:53Z</time>
      </trkpt>
      <trkpt lat="43.88486" lon="5.21532">
        <ele>230.37</ele>
        <time>2017-01-11T08:38:15Z</time>
      </trkpt>
      <trkpt lat="43.88513" lon="5.21538">
        <ele>229.89</ele>
        <time>2017-01-11T08:38:37Z</time>
      </trkpt>
      <trkpt lat="43.88524" lon="5.21534">
        <ele>231.33</ele>
        <time>2017-01-11T08:38:47Z</time>
      </trkpt>
      <trkpt lat="43.8854" lon="5.21517">
        <ele>233.26</ele>
        <time>2017-01-11T08:39:06Z</time>
      </trkpt>
      <trkpt lat="43.88553" lon="5.21496">
        <ele>238.54</ele>
        <time>2017-01-11T08:39:25Z</time>
      </trkpt>
      <trkpt lat="43.8857" lon="5.21491">
        <ele>244.79</ele>
        <time>2017-01-11T08:39:43Z</time>
      </trkpt>
      <trkpt lat="43.88588" lon="5.21494">
        <ele>247.2</ele>
        <time>2017-01-11T08:40:02Z</time>
      </trkpt>
      <trkpt lat="43.88607" lon="5.215">
        <ele>248.64</ele>
        <time>2017-01-11T08:40:21Z</time>
      </trkpt>
      <trkpt lat="43.88626" lon="5.21505">
        <ele>252</ele>
        <time>2017-01-11T08:40:42Z</time>
      </trkpt>
      <trkpt lat="43.88637" lon="5.21509">
        <ele>253.44</ele>
        <time>2017-01-11T08:40:52Z</time>
      </trkpt>
      <trkpt lat="43.8866" lon="5.21515">
        <ele>255.37</ele>
        <time>2017-01-11T08:41:15Z</time>
      </trkpt>
      <trkpt lat="43.88681" lon="5.21519">
        <ele>256.33</ele>
        <time>2017-01-11T08:41:34Z</time>
      </trkpt>
      <trkpt lat="43.88705" lon="5.21524">
        <ele>257.77</ele>
        <time>2017-01-11T08:41:55Z</time>
      </trkpt>
      <trkpt lat="43.88725" lon="5.2154">
        <ele>260.17</ele>
        <time>2017-01-11T08:42:16Z</time>
      </trkpt>
      <trkpt lat="43.88747" lon="5.21558">
        <ele>262.1</ele>
        <time>2017-01-11T08:42:39Z</time>
      </trkpt>
      <trkpt lat="43.88771" lon="5.2156">
        <ele>262.58</ele>
        <time>2017-01-11T08:43:00Z</time>
      </trkpt>
      <trkpt lat="43.88791" lon="5.21558">
        <ele>263.54</ele>
        <time>2017-01-11T08:43:19Z</time>
      </trkpt>
      <trkpt lat="43.88822" lon="5.2156">
        <ele>265.94</ele>
        <time>2017-01-11T08:43:43Z</time>
      </trkpt>
      <trkpt lat="43.88851" lon="5.21571">
        <ele>265.46</ele>
        <time>2017-01-11T08:44:07Z</time>
      </trkpt>
      <trkpt lat="43.88876" lon="5.21584">
        <ele>266.42</ele>
        <time>2017-01-11T08:44:30Z</time>
      </trkpt>
      <trkpt lat="43.88899" lon="5.21601">
        <ele>267.86</ele>
        <time>2017-01-11T08:44:51Z</time>
      </trkpt>
      <trkpt lat="43.88921" lon="5.21617">
        <ele>266.9</ele>
        <time>2017-01-11T08:45:12Z</time>
      </trkpt>
      <trkpt lat="43.8894" lon="5.21628">
        <ele>266.42</ele>
        <time>2017-01-11T08:45:30Z</time>
      </trkpt>
      <trkpt lat="43.88965" lon="5.21641">
        <ele>269.31</ele>
        <time>2017-01-11T08:45:50Z</time>
      </trkpt>
      <trkpt lat="43.88989" lon="5.21665">
        <ele>270.27</ele>
        <time>2017-01-11T08:46:13Z</time>
      </trkpt>
      <trkpt lat="43.88997" lon="5.21683">
        <ele>271.71</ele>
        <time>2017-01-11T08:46:25Z</time>
      </trkpt>
      <trkpt lat="43.88998" lon="5.21725">
        <ele>273.15</ele>
        <time>2017-01-11T08:46:51Z</time>
      </trkpt>
      <trkpt lat="43.89012" lon="5.21739">
        <ele>273.15</ele>
        <time>2017-01-11T08:47:12Z</time>
      </trkpt>
      <trkpt lat="43.89035" lon="5.21735">
        <ele>268.83</ele>
        <time>2017-01-11T08:47:34Z</time>
      </trkpt>
      <trkpt lat="43.89057" lon="5.21748">
        <ele>263.54</ele>
        <time>2017-01-11T08:47:57Z</time>
      </trkpt>
      <trkpt lat="43.89073" lon="5.21759">
        <ele>261.14</ele>
        <time>2017-01-11T08:48:17Z</time>
      </trkpt>
      <trkpt lat="43.89088" lon="5.21773">
        <ele>257.29</ele>
        <time>2017-01-11T08:48:39Z</time>
      </trkpt>
      <trkpt lat="43.89095" lon="5.21782">
        <ele>257.29</ele>
        <time>2017-01-11T08:49:16Z</time>
      </trkpt>
      <trkpt lat="43.89096" lon="5.21791">
        <ele>258.25</ele>
        <time>2017-01-11T08:49:53Z</time>
      </trkpt>
      <trkpt lat="43.89095" lon="5.21792">
        <ele>264.98</ele>
        <time>2017-01-11T08:50:29Z</time>
      </trkpt>
      <trkpt lat="43.89094" lon="5.21779">
        <ele>270.27</ele>
        <time>2017-01-11T08:51:02Z</time>
      </trkpt>
      <trkpt lat="43.89093" lon="5.21779">
        <ele>271.23</ele>
        <time>2017-01-11T08:51:33Z</time>
      </trkpt>
      <trkpt lat="43.89093" lon="5.21784">
        <ele>268.35</ele>
        <time>2017-01-11T08:51:58Z</time>
      </trkpt>
      <trkpt lat="43.89099" lon="5.21785">
        <ele>267.38</ele>
        <time>2017-01-11T08:52:24Z</time>
      </trkpt>
      <trkpt lat="43.8912" lon="5.21784">
        <ele>265.94</ele>
        <time>2017-01-11T08:52:46Z</time>
      </trkpt>
      <trkpt lat="43.89126" lon="5.21798">
        <ele>264.5</ele>
        <time>2017-01-11T08:53:03Z</time>
      </trkpt>
      <trkpt lat="43.89145" lon="5.21813">
        <ele>262.1</ele>
        <time>2017-01-11T08:53:23Z</time>
      </trkpt>
      <trkpt lat="43.89165" lon="5.21824">
        <ele>260.17</ele>
        <time>2017-01-11T08:53:45Z</time>
      </trkpt>
      <trkpt lat="43.89186" lon="5.21828">
        <ele>260.65</ele>
        <time>2017-01-11T08:54:06Z</time>
      </trkpt>
      <trkpt lat="43.89212" lon="5.21828">
        <ele>263.06</ele>
        <time>2017-01-11T08:54:30Z</time>
      </trkpt>
      <trkpt lat="43.89235" lon="5.21829">
        <ele>264.98</ele>
        <time>2017-01-11T08:54:53Z</time>
      </trkpt>
      <trkpt lat="43.89248" lon="5.21821">
        <ele>264.02</ele>
        <time>2017-01-11T08:55:09Z</time>
      </trkpt>
      <trkpt lat="43.89268" lon="5.21814">
        <ele>264.02</ele>
        <time>2017-01-11T08:55:27Z</time>
      </trkpt>
      <trkpt lat="43.89287" lon="5.21805">
        <ele>262.1</ele>
        <time>2017-01-11T08:55:48Z</time>
      </trkpt>
      <trkpt lat="43.893" lon="5.21797">
        <ele>260.17</ele>
        <time>2017-01-11T08:56:06Z</time>
      </trkpt>
      <trkpt lat="43.89317" lon="5.21784">
        <ele>260.17</ele>
        <time>2017-01-11T08:56:24Z</time>
      </trkpt>
      <trkpt lat="43.89336" lon="5.21769">
        <ele>261.62</ele>
        <time>2017-01-11T08:56:43Z</time>
      </trkpt>
      <trkpt lat="43.89358" lon="5.21754">
        <ele>264.98</ele>
        <time>2017-01-11T08:57:04Z</time>
      </trkpt>
      <trkpt lat="43.89373" lon="5.21742">
        <ele>265.94</ele>
        <time>2017-01-11T08:57:22Z</time>
      </trkpt>
      <trkpt lat="43.8939" lon="5.21727">
        <ele>266.42</ele>
        <time>2017-01-11T08:57:43Z</time>
      </trkpt>
      <trkpt lat="43.89403" lon="5.21717">
        <ele>267.86</ele>
        <time>2017-01-11T08:58:02Z</time>
      </trkpt>
      <trkpt lat="43.89407" lon="5.21697">
        <ele>267.86</ele>
        <time>2017-01-11T08:58:23Z</time>
      </trkpt>
      <trkpt lat="43.89414" lon="5.21673">
        <ele>271.23</ele>
        <time>2017-01-11T08:58:42Z</time>
      </trkpt>
      <trkpt lat="43.89416" lon="5.21648">
        <ele>271.71</ele>
        <time>2017-01-11T08:59:00Z</time>
      </trkpt>
      <trkpt lat="43.8941" lon="5.21626">
        <ele>271.71</ele>
        <time>2017-01-11T08:59:21Z</time>
      </trkpt>
      <trkpt lat="43.89397" lon="5.21618">
        <ele>275.56</ele>
        <time>2017-01-11T08:59:37Z</time>
      </trkpt>
      <trkpt lat="43.89381" lon="5.21612">
        <ele>278.44</ele>
        <time>2017-01-11T08:59:55Z</time>
      </trkpt>
      <trkpt lat="43.89362" lon="5.21605">
        <ele>282.77</ele>
        <time>2017-01-11T09:00:16Z</time>
      </trkpt>
      <trkpt lat="43.89348" lon="5.21595">
        <ele>283.25</ele>
        <time>2017-01-11T09:00:35Z</time>
      </trkpt>
      <trkpt lat="43.89341" lon="5.21586">
        <ele>284.21</ele>
        <time>2017-01-11T09:00:54Z</time>
      </trkpt>
      <trkpt lat="43.89337" lon="5.2158">
        <ele>286.13</ele>
        <time>2017-01-11T09:01:17Z</time>
      </trkpt>
      <trkpt lat="43.89335" lon="5.21579">
        <ele>286.61</ele>
        <time>2017-01-11T09:01:37Z</time>
      </trkpt>
      <trkpt lat="43.89333" lon="5.21582">
        <ele>286.61</ele>
        <time>2017-01-11T09:01:56Z</time>
      </trkpt>
      <trkpt lat="43.89325" lon="5.21592">
        <ele>283.73</ele>
        <time>2017-01-11T09:02:11Z</time>
      </trkpt>
      <trkpt lat="43.89317" lon="5.21604">
        <ele>282.77</ele>
        <time>2017-01-11T09:02:28Z</time>
      </trkpt>
      <trkpt lat="43.89313" lon="5.21611">
        <ele>281.8</ele>
        <time>2017-01-11T09:02:46Z</time>
      </trkpt>
      <trkpt lat="43.89306" lon="5.21617">
        <ele>281.8</ele>
        <time>2017-01-11T09:03:05Z</time>
      </trkpt>
      <trkpt lat="43.893" lon="5.21625">
        <ele>279.88</ele>
        <time>2017-01-11T09:03:25Z</time>
      </trkpt>
      <trkpt lat="43.89296" lon="5.21627">
        <ele>279.88</ele>
        <time>2017-01-11T09:03:51Z</time>
      </trkpt>
      <trkpt lat="43.89291" lon="5.21628">
        <ele>280.84</ele>
        <time>2017-01-11T09:04:13Z</time>
      </trkpt>
      <trkpt lat="43.8929" lon="5.21627">
        <ele>279.4</ele>
        <time>2017-01-11T09:04:39Z</time>
      </trkpt>
      <trkpt lat="43.89286" lon="5.21624">
        <ele>279.4</ele>
        <time>2017-01-11T09:04:58Z</time>
      </trkpt>
      <trkpt lat="43.89288" lon="5.21627">
        <ele>279.88</ele>
        <time>2017-01-11T09:05:19Z</time>
      </trkpt>
      <trkpt lat="43.89288" lon="5.2163">
        <ele>281.8</ele>
        <time>2017-01-11T09:05:42Z</time>
      </trkpt>
      <trkpt lat="43.89288" lon="5.21634">
        <ele>280.84</ele>
        <time>2017-01-11T09:06:00Z</time>
      </trkpt>
      <trkpt lat="43.89287" lon="5.21639">
        <ele>278.92</ele>
        <time>2017-01-11T09:06:21Z</time>
      </trkpt>
      <trkpt lat="43.89282" lon="5.21635">
        <ele>277.48</ele>
        <time>2017-01-11T09:06:38Z</time>
      </trkpt>
      <trkpt lat="43.89278" lon="5.21634">
        <ele>281.32</ele>
        <time>2017-01-11T09:06:56Z</time>
      </trkpt>
      <trkpt lat="43.89272" lon="5.21629">
        <ele>282.28</ele>
        <time>2017-01-11T09:07:10Z</time>
      </trkpt>
      <trkpt lat="43.89273" lon="5.21621">
        <ele>283.25</ele>
        <time>2017-01-11T09:07:22Z</time>
      </trkpt>
      <trkpt lat="43.89273" lon="5.21615">
        <ele>284.21</ele>
        <time>2017-01-11T09:07:34Z</time>
      </trkpt>
      <trkpt lat="43.89268" lon="5.21605">
        <ele>282.28</ele>
        <time>2017-01-11T09:07:51Z</time>
      </trkpt>
      <trkpt lat="43.89271" lon="5.21601">
        <ele>282.77</ele>
        <time>2017-01-11T09:08:06Z</time>
      </trkpt>
      <trkpt lat="43.89271" lon="5.21594">
        <ele>281.8</ele>
        <time>2017-01-11T09:08:23Z</time>
      </trkpt>
      <trkpt lat="43.89271" lon="5.21584">
        <ele>277.48</ele>
        <time>2017-01-11T09:08:38Z</time>
      </trkpt>
      <trkpt lat="43.89267" lon="5.21574">
        <ele>276.04</ele>
        <time>2017-01-11T09:08:51Z</time>
      </trkpt>
      <trkpt lat="43.89265" lon="5.21571">
        <ele>274.59</ele>
        <time>2017-01-11T09:09:08Z</time>
      </trkpt>
      <trkpt lat="43.8926" lon="5.21563">
        <ele>279.88</ele>
        <time>2017-01-11T09:09:27Z</time>
      </trkpt>
      <trkpt lat="43.89264" lon="5.21569">
        <ele>280.36</ele>
        <time>2017-01-11T09:09:43Z</time>
      </trkpt>
      <trkpt lat="43.89266" lon="5.21569">
        <ele>280.36</ele>
        <time>2017-01-11T09:10:04Z</time>
      </trkpt>
      <trkpt lat="43.89263" lon="5.21564">
        <ele>281.32</ele>
        <time>2017-01-11T09:10:23Z</time>
      </trkpt>
      <trkpt lat="43.89264" lon="5.21564">
        <ele>283.73</ele>
        <time>2017-01-11T09:10:45Z</time>
      </trkpt>
      <trkpt lat="43.89263" lon="5.21567">
        <ele>285.17</ele>
        <time>2017-01-11T09:11:10Z</time>
      </trkpt>
      <trkpt lat="43.89264" lon="5.21569">
        <ele>285.65</ele>
        <time>2017-01-11T09:11:32Z</time>
      </trkpt>
      <trkpt lat="43.89264" lon="5.21571">
        <ele>285.17</ele>
        <time>2017-01-11T09:11:50Z</time>
      </trkpt>
      <trkpt lat="43.89261" lon="5.21571">
        <ele>284.21</ele>
        <time>2017-01-11T09:12:03Z</time>
      </trkpt>
      <trkpt lat="43.89259" lon="5.21569">
        <ele>285.17</ele>
        <time>2017-01-11T09:12:29Z</time>
      </trkpt>
      <trkpt lat="43.89249" lon="5.21568">
        <ele>282.28</ele>
        <time>2017-01-11T09:12:44Z</time>
      </trkpt>
      <trkpt lat="43.8924" lon="5.21573">
        <ele>282.28</ele>
        <time>2017-01-11T09:12:59Z</time>
      </trkpt>
      <trkpt lat="43.89232" lon="5.21579">
        <ele>280.36</ele>
        <time>2017-01-11T09:13:13Z</time>
      </trkpt>
      <trkpt lat="43.8922" lon="5.21583">
        <ele>277.96</ele>
        <time>2017-01-11T09:13:30Z</time>
      </trkpt>
      <trkpt lat="43.89205" lon="5.21586">
        <ele>278.92</ele>
        <time>2017-01-11T09:13:46Z</time>
      </trkpt>
      <trkpt lat="43.89192" lon="5.21589">
        <ele>277</ele>
        <time>2017-01-11T09:14:03Z</time>
      </trkpt>
      <trkpt lat="43.89179" lon="5.21595">
        <ele>277.48</ele>
        <time>2017-01-11T09:14:17Z</time>
      </trkpt>
      <trkpt lat="43.89165" lon="5.216">
        <ele>278.92</ele>
        <time>2017-01-11T09:14:33Z</time>
      </trkpt>
      <trkpt lat="43.89154" lon="5.21606">
        <ele>276.52</ele>
        <time>2017-01-11T09:14:48Z</time>
      </trkpt>
      <trkpt lat="43.8914" lon="5.21613">
        <ele>277.96</ele>
        <time>2017-01-11T09:15:05Z</time>
      </trkpt>
      <trkpt lat="43.89129" lon="5.21621">
        <ele>278.44</ele>
        <time>2017-01-11T09:15:20Z</time>
      </trkpt>
      <trkpt lat="43.8912" lon="5.21628">
        <ele>277</ele>
        <time>2017-01-11T09:15:35Z</time>
      </trkpt>
      <trkpt lat="43.89108" lon="5.21635">
        <ele>275.56</ele>
        <time>2017-01-11T09:15:50Z</time>
      </trkpt>
      <trkpt lat="43.89098" lon="5.21639">
        <ele>276.04</ele>
        <time>2017-01-11T09:16:03Z</time>
      </trkpt>
      <trkpt lat="43.89087" lon="5.21643">
        <ele>277.96</ele>
        <time>2017-01-11T09:16:20Z</time>
      </trkpt>
      <trkpt lat="43.89073" lon="5.21651">
        <ele>277</ele>
        <time>2017-01-11T09:16:37Z</time>
      </trkpt>
      <trkpt lat="43.89062" lon="5.21651">
        <ele>280.36</ele>
        <time>2017-01-11T09:16:53Z</time>
      </trkpt>
      <trkpt lat="43.89057" lon="5.21649">
        <ele>282.77</ele>
        <time>2017-01-11T09:17:12Z</time>
      </trkpt>
      <trkpt lat="43.89053" lon="5.21647">
        <ele>282.77</ele>
        <time>2017-01-11T09:17:27Z</time>
      </trkpt>
      <trkpt lat="43.89053" lon="5.21648">
        <ele>288.05</ele>
        <time>2017-01-11T09:17:58Z</time>
      </trkpt>
      <trkpt lat="43.89053" lon="5.21648">
        <ele>289.49</ele>
        <time>2017-01-11T09:18:24Z</time>
      </trkpt>
      <trkpt lat="43.89054" lon="5.21643">
        <ele>288.53</ele>
        <time>2017-01-11T09:18:50Z</time>
      </trkpt>
      <trkpt lat="43.89058" lon="5.21627">
        <ele>286.13</ele>
        <time>2017-01-11T09:19:06Z</time>
      </trkpt>
      <trkpt lat="43.8906" lon="5.21611">
        <ele>284.69</ele>
        <time>2017-01-11T09:19:23Z</time>
      </trkpt>
      <trkpt lat="43.89055" lon="5.21596">
        <ele>286.13</ele>
        <time>2017-01-11T09:19:38Z</time>
      </trkpt>
      <trkpt lat="43.89053" lon="5.21594">
        <ele>286.61</ele>
        <time>2017-01-11T09:19:41Z</time>
      </trkpt>
      <trkpt lat="43.8904" lon="5.21589">
        <ele>288.05</ele>
        <time>2017-01-11T09:19:56Z</time>
      </trkpt>
      <trkpt lat="43.89035" lon="5.21589">
        <ele>290.46</ele>
        <time>2017-01-11T09:20:11Z</time>
      </trkpt>
      <trkpt lat="43.89034" lon="5.21591">
        <ele>292.38</ele>
        <time>2017-01-11T09:20:30Z</time>
      </trkpt>
      <trkpt lat="43.89025" lon="5.21586">
        <ele>293.34</ele>
        <time>2017-01-11T09:20:46Z</time>
      </trkpt>
      <trkpt lat="43.89012" lon="5.2158">
        <ele>295.26</ele>
        <time>2017-01-11T09:21:01Z</time>
      </trkpt>
      <trkpt lat="43.89001" lon="5.2157">
        <ele>295.26</ele>
        <time>2017-01-11T09:21:16Z</time>
      </trkpt>
      <trkpt lat="43.88993" lon="5.21553">
        <ele>297.67</ele>
        <time>2017-01-11T09:21:33Z</time>
      </trkpt>
      <trkpt lat="43.88984" lon="5.21535">
        <ele>300.07</ele>
        <time>2017-01-11T09:21:50Z</time>
      </trkpt>
      <trkpt lat="43.8898" lon="5.21522">
        <ele>300.07</ele>
        <time>2017-01-11T09:22:03Z</time>
      </trkpt>
      <trkpt lat="43.88981" lon="5.21516">
        <ele>299.59</ele>
        <time>2017-01-11T09:22:08Z</time>
      </trkpt>
      <trkpt lat="43.88978" lon="5.21496">
        <ele>300.55</ele>
        <time>2017-01-11T09:22:24Z</time>
      </trkpt>
      <trkpt lat="43.88971" lon="5.21478">
        <ele>302.95</ele>
        <time>2017-01-11T09:22:39Z</time>
      </trkpt>
      <trkpt lat="43.88974" lon="5.21465">
        <ele>301.03</ele>
        <time>2017-01-11T09:22:54Z</time>
      </trkpt>
      <trkpt lat="43.88978" lon="5.21465">
        <ele>301.51</ele>
        <time>2017-01-11T09:23:11Z</time>
      </trkpt>
      <trkpt lat="43.8898" lon="5.21468">
        <ele>300.55</ele>
        <time>2017-01-11T09:23:26Z</time>
      </trkpt>
      <trkpt lat="43.88979" lon="5.21464">
        <ele>301.99</ele>
        <time>2017-01-11T09:23:48Z</time>
      </trkpt>
      <trkpt lat="43.88977" lon="5.2146">
        <ele>302.47</ele>
        <time>2017-01-11T09:24:07Z</time>
      </trkpt>
      <trkpt lat="43.8898" lon="5.21464">
        <ele>301.51</ele>
        <time>2017-01-11T09:24:23Z</time>
      </trkpt>
      <trkpt lat="43.88984" lon="5.21467">
        <ele>301.03</ele>
        <time>2017-01-11T09:24:36Z</time>
      </trkpt>
      <trkpt lat="43.89004" lon="5.21485">
        <ele>302.47</ele>
        <time>2017-01-11T09:24:55Z</time>
      </trkpt>
      <trkpt lat="43.89023" lon="5.21499">
        <ele>303.43</ele>
        <time>2017-01-11T09:25:14Z</time>
      </trkpt>
      <trkpt lat="43.89035" lon="5.21513">
        <ele>302.95</ele>
        <time>2017-01-11T09:25:31Z</time>
      </trkpt>
      <trkpt lat="43.89046" lon="5.21527">
        <ele>302.95</ele>
        <time>2017-01-11T09:25:47Z</time>
      </trkpt>
      <trkpt lat="43.89058" lon="5.2154">
        <ele>304.88</ele>
        <time>2017-01-11T09:26:07Z</time>
      </trkpt>
      <trkpt lat="43.89057" lon="5.2154">
        <ele>305.36</ele>
        <time>2017-01-11T09:26:23Z</time>
      </trkpt>
      <trkpt lat="43.89064" lon="5.21542">
        <ele>304.88</ele>
        <time>2017-01-11T09:26:37Z</time>
      </trkpt>
      <trkpt lat="43.89075" lon="5.21542">
        <ele>306.32</ele>
        <time>2017-01-11T09:26:52Z</time>
      </trkpt>
      <trkpt lat="43.89084" lon="5.21536">
        <ele>308.24</ele>
        <time>2017-01-11T09:27:09Z</time>
      </trkpt>
      <trkpt lat="43.8908" lon="5.21523">
        <ele>309.68</ele>
        <time>2017-01-11T09:27:24Z</time>
      </trkpt>
      <trkpt lat="43.89078" lon="5.21511">
        <ele>310.16</ele>
        <time>2017-01-11T09:27:38Z</time>
      </trkpt>
      <trkpt lat="43.89077" lon="5.21502">
        <ele>311.12</ele>
        <time>2017-01-11T09:27:53Z</time>
      </trkpt>
      <trkpt lat="43.89077" lon="5.21496">
        <ele>312.57</ele>
        <time>2017-01-11T09:28:06Z</time>
      </trkpt>
      <trkpt lat="43.89079" lon="5.21488">
        <ele>314.49</ele>
        <time>2017-01-11T09:28:21Z</time>
      </trkpt>
      <trkpt lat="43.89084" lon="5.21481">
        <ele>315.45</ele>
        <time>2017-01-11T09:28:37Z</time>
      </trkpt>
      <trkpt lat="43.89085" lon="5.21477">
        <ele>315.93</ele>
        <time>2017-01-11T09:28:40Z</time>
      </trkpt>
      <trkpt lat="43.89069" lon="5.21467">
        <ele>319.78</ele>
        <time>2017-01-11T09:28:57Z</time>
      </trkpt>
      <trkpt lat="43.89055" lon="5.2145">
        <ele>321.22</ele>
        <time>2017-01-11T09:29:15Z</time>
      </trkpt>
      <trkpt lat="43.89044" lon="5.21444">
        <ele>320.74</ele>
        <time>2017-01-11T09:29:29Z</time>
      </trkpt>
      <trkpt lat="43.89036" lon="5.21443">
        <ele>320.74</ele>
        <time>2017-01-11T09:29:42Z</time>
      </trkpt>
      <trkpt lat="43.8903" lon="5.21436">
        <ele>321.22</ele>
        <time>2017-01-11T09:29:55Z</time>
      </trkpt>
      <trkpt lat="43.89026" lon="5.2143">
        <ele>321.22</ele>
        <time>2017-01-11T09:30:10Z</time>
      </trkpt>
      <trkpt lat="43.89017" lon="5.21416">
        <ele>320.74</ele>
        <time>2017-01-11T09:30:26Z</time>
      </trkpt>
      <trkpt lat="43.89008" lon="5.21415">
        <ele>320.26</ele>
        <time>2017-01-11T09:30:36Z</time>
      </trkpt>
      <trkpt lat="43.89004" lon="5.21423">
        <ele>319.78</ele>
        <time>2017-01-11T09:30:51Z</time>
      </trkpt>
      <trkpt lat="43.89003" lon="5.21425">
        <ele>317.37</ele>
        <time>2017-01-11T09:31:28Z</time>
      </trkpt>
      <trkpt lat="43.89005" lon="5.21425">
        <ele>314.97</ele>
        <time>2017-01-11T09:32:00Z</time>
      </trkpt>
      <trkpt lat="43.89006" lon="5.21425">
        <ele>314.97</ele>
        <time>2017-01-11T09:32:40Z</time>
      </trkpt>
      <trkpt lat="43.89005" lon="5.21424">
        <ele>314.49</ele>
        <time>2017-01-11T09:33:14Z</time>
      </trkpt>
      <trkpt lat="43.89004" lon="5.21426">
        <ele>314.97</ele>
        <time>2017-01-11T09:33:45Z</time>
      </trkpt>
      <trkpt lat="43.89003" lon="5.21423">
        <ele>316.89</ele>
        <time>2017-01-11T09:34:05Z</time>
      </trkpt>
      <trkpt lat="43.89007" lon="5.21433">
        <ele>314.49</ele>
        <time>2017-01-11T09:34:20Z</time>
      </trkpt>
      <trkpt lat="43.89011" lon="5.21435">
        <ele>313.05</ele>
        <time>2017-01-11T09:34:37Z</time>
      </trkpt>
      <trkpt lat="43.89008" lon="5.21434">
        <ele>314.49</ele>
        <time>2017-01-11T09:34:53Z</time>
      </trkpt>
      <trkpt lat="43.8901" lon="5.21441">
        <ele>314.01</ele>
        <time>2017-01-11T09:35:05Z</time>
      </trkpt>
      <trkpt lat="43.89004" lon="5.21434">
        <ele>315.93</ele>
        <time>2017-01-11T09:35:14Z</time>
      </trkpt>
      <trkpt lat="43.89003" lon="5.21431">
        <ele>315.93</ele>
        <time>2017-01-11T09:35:17Z</time>
      </trkpt>
      <trkpt lat="43.89005" lon="5.21424">
        <ele>314.01</ele>
        <time>2017-01-11T09:35:21Z</time>
      </trkpt>
      <trkpt lat="43.89009" lon="5.21417">
        <ele>312.57</ele>
        <time>2017-01-11T09:35:26Z</time>
      </trkpt>
      <trkpt lat="43.89011" lon="5.21405">
        <ele>311.12</ele>
        <time>2017-01-11T09:35:33Z</time>
      </trkpt>
      <trkpt lat="43.89019" lon="5.21389">
        <ele>310.64</ele>
        <time>2017-01-11T09:35:46Z</time>
      </trkpt>
      <trkpt lat="43.8902" lon="5.21387">
        <ele>312.09</ele>
        <time>2017-01-11T09:35:58Z</time>
      </trkpt>
      <trkpt lat="43.89016" lon="5.21387">
        <ele>314.01</ele>
        <time>2017-01-11T09:36:18Z</time>
      </trkpt>
      <trkpt lat="43.89013" lon="5.21391">
        <ele>316.41</ele>
        <time>2017-01-11T09:36:38Z</time>
      </trkpt>
      <trkpt lat="43.89014" lon="5.214">
        <ele>315.45</ele>
        <time>2017-01-11T09:36:51Z</time>
      </trkpt>
      <trkpt lat="43.89004" lon="5.21425">
        <ele>316.89</ele>
        <time>2017-01-11T09:37:09Z</time>
      </trkpt>
      <trkpt lat="43.89007" lon="5.21429">
        <ele>316.89</ele>
        <time>2017-01-11T09:37:20Z</time>
      </trkpt>
      <trkpt lat="43.89004" lon="5.21424">
        <ele>316.89</ele>
        <time>2017-01-11T09:37:33Z</time>
      </trkpt>
      <trkpt lat="43.89011" lon="5.21419">
        <ele>314.01</ele>
        <time>2017-01-11T09:37:44Z</time>
      </trkpt>
      <trkpt lat="43.89026" lon="5.21435">
        <ele>313.05</ele>
        <time>2017-01-11T09:38:01Z</time>
      </trkpt>
      <trkpt lat="43.89037" lon="5.21449">
        <ele>314.49</ele>
        <time>2017-01-11T09:38:17Z</time>
      </trkpt>
      <trkpt lat="43.89045" lon="5.2145">
        <ele>314.97</ele>
        <time>2017-01-11T09:38:24Z</time>
      </trkpt>
      <trkpt lat="43.89051" lon="5.21452">
        <ele>314.97</ele>
        <time>2017-01-11T09:38:29Z</time>
      </trkpt>
      <trkpt lat="43.89066" lon="5.2147">
        <ele>316.41</ele>
        <time>2017-01-11T09:38:47Z</time>
      </trkpt>
      <trkpt lat="43.89082" lon="5.21481">
        <ele>316.89</ele>
        <time>2017-01-11T09:39:04Z</time>
      </trkpt>
      <trkpt lat="43.89097" lon="5.21489">
        <ele>316.89</ele>
        <time>2017-01-11T09:39:20Z</time>
      </trkpt>
      <trkpt lat="43.89101" lon="5.21489">
        <ele>316.89</ele>
        <time>2017-01-11T09:39:24Z</time>
      </trkpt>
      <trkpt lat="43.89118" lon="5.21486">
        <ele>315.45</ele>
        <time>2017-01-11T09:39:44Z</time>
      </trkpt>
      <trkpt lat="43.89129" lon="5.21486">
        <ele>315.45</ele>
        <time>2017-01-11T09:39:56Z</time>
      </trkpt>
      <trkpt lat="43.89141" lon="5.2147">
        <ele>314.49</ele>
        <time>2017-01-11T09:40:13Z</time>
      </trkpt>
      <trkpt lat="43.8915" lon="5.2147">
        <ele>314.01</ele>
        <time>2017-01-11T09:40:23Z</time>
      </trkpt>
      <trkpt lat="43.89168" lon="5.21469">
        <ele>316.41</ele>
        <time>2017-01-11T09:40:41Z</time>
      </trkpt>
      <trkpt lat="43.8917" lon="5.21469">
        <ele>316.41</ele>
        <time>2017-01-11T09:40:43Z</time>
      </trkpt>
      <trkpt lat="43.89182" lon="5.21457">
        <ele>316.41</ele>
        <time>2017-01-11T09:40:59Z</time>
      </trkpt>
      <trkpt lat="43.89192" lon="5.21451">
        <ele>315.93</ele>
        <time>2017-01-11T09:41:15Z</time>
      </trkpt>
      <trkpt lat="43.89204" lon="5.21454">
        <ele>315.93</ele>
        <time>2017-01-11T09:41:28Z</time>
      </trkpt>
      <trkpt lat="43.89214" lon="5.21456">
        <ele>317.85</ele>
        <time>2017-01-11T09:41:37Z</time>
      </trkpt>
      <trkpt lat="43.89227" lon="5.21448">
        <ele>319.3</ele>
        <time>2017-01-11T09:41:54Z</time>
      </trkpt>
      <trkpt lat="43.89234" lon="5.21446">
        <ele>319.78</ele>
        <time>2017-01-11T09:42:02Z</time>
      </trkpt>
      <trkpt lat="43.89248" lon="5.21437">
        <ele>320.74</ele>
        <time>2017-01-11T09:42:18Z</time>
      </trkpt>
      <trkpt lat="43.8925" lon="5.21434">
        <ele>320.74</ele>
        <time>2017-01-11T09:42:21Z</time>
      </trkpt>
      <trkpt lat="43.89265" lon="5.21435">
        <ele>321.7</ele>
        <time>2017-01-11T09:42:38Z</time>
      </trkpt>
      <trkpt lat="43.89274" lon="5.21443">
        <ele>324.1</ele>
        <time>2017-01-11T09:42:54Z</time>
      </trkpt>
      <trkpt lat="43.89277" lon="5.21446">
        <ele>325.54</ele>
        <time>2017-01-11T09:43:10Z</time>
      </trkpt>
      <trkpt lat="43.89276" lon="5.21447">
        <ele>326.02</ele>
        <time>2017-01-11T09:43:35Z</time>
      </trkpt>
      <trkpt lat="43.89275" lon="5.2145">
        <ele>327.47</ele>
        <time>2017-01-11T09:44:01Z</time>
      </trkpt>
      <trkpt lat="43.89277" lon="5.21449">
        <ele>326.99</ele>
        <time>2017-01-11T09:44:23Z</time>
      </trkpt>
      <trkpt lat="43.89277" lon="5.21449">
        <ele>324.1</ele>
        <time>2017-01-11T09:44:53Z</time>
      </trkpt>
      <trkpt lat="43.89277" lon="5.21447">
        <ele>324.1</ele>
        <time>2017-01-11T09:45:15Z</time>
      </trkpt>
      <trkpt lat="43.89276" lon="5.21449">
        <ele>325.06</ele>
        <time>2017-01-11T09:45:46Z</time>
      </trkpt>
      <trkpt lat="43.89276" lon="5.21449">
        <ele>325.06</ele>
        <time>2017-01-11T09:46:16Z</time>
      </trkpt>
      <trkpt lat="43.89277" lon="5.21442">
        <ele>325.54</ele>
        <time>2017-01-11T09:46:33Z</time>
      </trkpt>
      <trkpt lat="43.89284" lon="5.21437">
        <ele>323.62</ele>
        <time>2017-01-11T09:46:49Z</time>
      </trkpt>
      <trkpt lat="43.89291" lon="5.21431">
        <ele>322.18</ele>
        <time>2017-01-11T09:47:05Z</time>
      </trkpt>
      <trkpt lat="43.89304" lon="5.21422">
        <ele>322.18</ele>
        <time>2017-01-11T09:47:21Z</time>
      </trkpt>
      <trkpt lat="43.89312" lon="5.2142">
        <ele>322.18</ele>
        <time>2017-01-11T09:47:36Z</time>
      </trkpt>
      <trkpt lat="43.89317" lon="5.21418">
        <ele>324.1</ele>
        <time>2017-01-11T09:47:54Z</time>
      </trkpt>
      <trkpt lat="43.89321" lon="5.21411">
        <ele>325.06</ele>
        <time>2017-01-11T09:48:07Z</time>
      </trkpt>
      <trkpt lat="43.89328" lon="5.21406">
        <ele>323.14</ele>
        <time>2017-01-11T09:48:16Z</time>
      </trkpt>
      <trkpt lat="43.89338" lon="5.21399">
        <ele>323.14</ele>
        <time>2017-01-11T09:48:26Z</time>
      </trkpt>
      <trkpt lat="43.89349" lon="5.21392">
        <ele>322.18</ele>
        <time>2017-01-11T09:48:40Z</time>
      </trkpt>
      <trkpt lat="43.89351" lon="5.2139">
        <ele>322.66</ele>
        <time>2017-01-11T09:48:42Z</time>
      </trkpt>
      <trkpt lat="43.8935" lon="5.21386">
        <ele>323.62</ele>
        <time>2017-01-11T09:48:45Z</time>
      </trkpt>
      <trkpt lat="43.89352" lon="5.2138">
        <ele>324.1</ele>
        <time>2017-01-11T09:48:50Z</time>
      </trkpt>
      <trkpt lat="43.89366" lon="5.21376">
        <ele>323.62</ele>
        <time>2017-01-11T09:49:05Z</time>
      </trkpt>
      <trkpt lat="43.89368" lon="5.21374">
        <ele>324.1</ele>
        <time>2017-01-11T09:49:08Z</time>
      </trkpt>
      <trkpt lat="43.89373" lon="5.21365">
        <ele>324.58</ele>
        <time>2017-01-11T09:49:15Z</time>
      </trkpt>
      <trkpt lat="43.89377" lon="5.21352">
        <ele>324.58</ele>
        <time>2017-01-11T09:49:27Z</time>
      </trkpt>
      <trkpt lat="43.89386" lon="5.21341">
        <ele>324.58</ele>
        <time>2017-01-11T09:49:43Z</time>
      </trkpt>
      <trkpt lat="43.89394" lon="5.2135">
        <ele>324.1</ele>
        <time>2017-01-11T09:49:58Z</time>
      </trkpt>
      <trkpt lat="43.89397" lon="5.21357">
        <ele>327.95</ele>
        <time>2017-01-11T09:50:15Z</time>
      </trkpt>
      <trkpt lat="43.89389" lon="5.2136">
        <ele>340.44</ele>
        <time>2017-01-11T09:50:33Z</time>
      </trkpt>
      <trkpt lat="43.89384" lon="5.21366">
        <ele>346.69</ele>
        <time>2017-01-11T09:50:53Z</time>
      </trkpt>
      <trkpt lat="43.89393" lon="5.21369">
        <ele>349.58</ele>
        <time>2017-01-11T09:51:22Z</time>
      </trkpt>
      <trkpt lat="43.89402" lon="5.21365">
        <ele>337.56</ele>
        <time>2017-01-11T09:51:46Z</time>
      </trkpt>
      <trkpt lat="43.89391" lon="5.21365">
        <ele>346.69</ele>
        <time>2017-01-11T09:52:16Z</time>
      </trkpt>
      <trkpt lat="43.89395" lon="5.21367">
        <ele>343.81</ele>
        <time>2017-01-11T09:52:48Z</time>
      </trkpt>
      <trkpt lat="43.89395" lon="5.2136">
        <ele>346.69</ele>
        <time>2017-01-11T09:53:13Z</time>
      </trkpt>
      <trkpt lat="43.89406" lon="5.21345">
        <ele>341.89</ele>
        <time>2017-01-11T09:53:29Z</time>
      </trkpt>
      <trkpt lat="43.89416" lon="5.2134">
        <ele>337.56</ele>
        <time>2017-01-11T09:53:43Z</time>
      </trkpt>
      <trkpt lat="43.89423" lon="5.21326">
        <ele>333.71</ele>
        <time>2017-01-11T09:54:00Z</time>
      </trkpt>
      <trkpt lat="43.89426" lon="5.21324">
        <ele>332.75</ele>
        <time>2017-01-11T09:54:03Z</time>
      </trkpt>
      <trkpt lat="43.89436" lon="5.21314">
        <ele>330.83</ele>
        <time>2017-01-11T09:54:18Z</time>
      </trkpt>
      <trkpt lat="43.8944" lon="5.21309">
        <ele>330.83</ele>
        <time>2017-01-11T09:54:24Z</time>
      </trkpt>
      <trkpt lat="43.89441" lon="5.21305">
        <ele>330.83</ele>
        <time>2017-01-11T09:54:27Z</time>
      </trkpt>
      <trkpt lat="43.89456" lon="5.21294">
        <ele>330.83</ele>
        <time>2017-01-11T09:54:46Z</time>
      </trkpt>
      <trkpt lat="43.89462" lon="5.2128">
        <ele>332.75</ele>
        <time>2017-01-11T09:55:01Z</time>
      </trkpt>
      <trkpt lat="43.89468" lon="5.21277">
        <ele>333.23</ele>
        <time>2017-01-11T09:55:18Z</time>
      </trkpt>
      <trkpt lat="43.89473" lon="5.2128">
        <ele>332.27</ele>
        <time>2017-01-11T09:55:35Z</time>
      </trkpt>
      <trkpt lat="43.89473" lon="5.21281">
        <ele>333.23</ele>
        <time>2017-01-11T09:55:53Z</time>
      </trkpt>
      <trkpt lat="43.89475" lon="5.2128">
        <ele>334.68</ele>
        <time>2017-01-11T09:56:21Z</time>
      </trkpt>
      <trkpt lat="43.89474" lon="5.21281">
        <ele>335.16</ele>
        <time>2017-01-11T09:56:46Z</time>
      </trkpt>
      <trkpt lat="43.89473" lon="5.21277">
        <ele>336.6</ele>
        <time>2017-01-11T09:57:07Z</time>
      </trkpt>
      <trkpt lat="43.8947" lon="5.21276">
        <ele>337.08</ele>
        <time>2017-01-11T09:57:13Z</time>
      </trkpt>
      <trkpt lat="43.89464" lon="5.2127">
        <ele>337.08</ele>
        <time>2017-01-11T09:57:21Z</time>
      </trkpt>
      <trkpt lat="43.89464" lon="5.21253">
        <ele>331.79</ele>
        <time>2017-01-11T09:57:34Z</time>
      </trkpt>
      <trkpt lat="43.89465" lon="5.21245">
        <ele>330.35</ele>
        <time>2017-01-11T09:57:41Z</time>
      </trkpt>
      <trkpt lat="43.89473" lon="5.21228">
        <ele>327.95</ele>
        <time>2017-01-11T09:57:57Z</time>
      </trkpt>
      <trkpt lat="43.89478" lon="5.21225">
        <ele>326.99</ele>
        <time>2017-01-11T09:58:03Z</time>
      </trkpt>
      <trkpt lat="43.89474" lon="5.21222">
        <ele>326.99</ele>
        <time>2017-01-11T09:58:09Z</time>
      </trkpt>
      <trkpt lat="43.89469" lon="5.21206">
        <ele>328.43</ele>
        <time>2017-01-11T09:58:23Z</time>
      </trkpt>
      <trkpt lat="43.8947" lon="5.212">
        <ele>329.87</ele>
        <time>2017-01-11T09:58:37Z</time>
      </trkpt>
      <trkpt lat="43.89468" lon="5.21199">
        <ele>335.16</ele>
        <time>2017-01-11T09:58:58Z</time>
      </trkpt>
      <trkpt lat="43.8947" lon="5.21193">
        <ele>336.12</ele>
        <time>2017-01-11T09:59:17Z</time>
      </trkpt>
      <trkpt lat="43.89475" lon="5.2118">
        <ele>333.23</ele>
        <time>2017-01-11T09:59:33Z</time>
      </trkpt>
      <trkpt lat="43.8948" lon="5.21165">
        <ele>331.31</ele>
        <time>2017-01-11T09:59:48Z</time>
      </trkpt>
      <trkpt lat="43.89475" lon="5.21149">
        <ele>331.79</ele>
        <time>2017-01-11T10:00:05Z</time>
      </trkpt>
      <trkpt lat="43.89476" lon="5.2114">
        <ele>333.71</ele>
        <time>2017-01-11T10:00:21Z</time>
      </trkpt>
      <trkpt lat="43.89484" lon="5.21131">
        <ele>329.87</ele>
        <time>2017-01-11T10:00:41Z</time>
      </trkpt>
      <trkpt lat="43.89486" lon="5.2112">
        <ele>328.43</ele>
        <time>2017-01-11T10:00:54Z</time>
      </trkpt>
      <trkpt lat="43.89491" lon="5.21109">
        <ele>327.47</ele>
        <time>2017-01-11T10:01:06Z</time>
      </trkpt>
      <trkpt lat="43.8949" lon="5.21095">
        <ele>328.43</ele>
        <time>2017-01-11T10:01:16Z</time>
      </trkpt>
      <trkpt lat="43.89489" lon="5.21084">
        <ele>327.95</ele>
        <time>2017-01-11T10:01:26Z</time>
      </trkpt>
      <trkpt lat="43.89491" lon="5.21065">
        <ele>326.02</ele>
        <time>2017-01-11T10:01:43Z</time>
      </trkpt>
      <trkpt lat="43.89493" lon="5.21049">
        <ele>325.54</ele>
        <time>2017-01-11T10:01:57Z</time>
      </trkpt>
      <trkpt lat="43.89494" lon="5.21032">
        <ele>328.43</ele>
        <time>2017-01-11T10:02:12Z</time>
      </trkpt>
      <trkpt lat="43.89495" lon="5.2103">
        <ele>328.43</ele>
        <time>2017-01-11T10:02:14Z</time>
      </trkpt>
      <trkpt lat="43.89495" lon="5.21026">
        <ele>328.43</ele>
        <time>2017-01-11T10:02:17Z</time>
      </trkpt>
      <trkpt lat="43.8949" lon="5.21012">
        <ele>328.43</ele>
        <time>2017-01-11T10:02:31Z</time>
      </trkpt>
      <trkpt lat="43.89487" lon="5.21008">
        <ele>328.43</ele>
        <time>2017-01-11T10:02:37Z</time>
      </trkpt>
      <trkpt lat="43.89472" lon="5.20996">
        <ele>329.39</ele>
        <time>2017-01-11T10:02:55Z</time>
      </trkpt>
      <trkpt lat="43.89468" lon="5.20987">
        <ele>327.95</ele>
        <time>2017-01-11T10:03:07Z</time>
      </trkpt>
      <trkpt lat="43.89464" lon="5.20983">
        <ele>327.47</ele>
        <time>2017-01-11T10:03:13Z</time>
      </trkpt>
      <trkpt lat="43.89467" lon="5.2097">
        <ele>324.1</ele>
        <time>2017-01-11T10:03:27Z</time>
      </trkpt>
      <trkpt lat="43.89472" lon="5.20958">
        <ele>320.26</ele>
        <time>2017-01-11T10:03:44Z</time>
      </trkpt>
      <trkpt lat="43.89479" lon="5.20951">
        <ele>319.3</ele>
        <time>2017-01-11T10:03:54Z</time>
      </trkpt>
      <trkpt lat="43.89486" lon="5.20941">
        <ele>320.26</ele>
        <time>2017-01-11T10:04:08Z</time>
      </trkpt>
      <trkpt lat="43.89488" lon="5.20922">
        <ele>321.7</ele>
        <time>2017-01-11T10:04:23Z</time>
      </trkpt>
      <trkpt lat="43.89492" lon="5.20906">
        <ele>323.62</ele>
        <time>2017-01-11T10:04:38Z</time>
      </trkpt>
      <trkpt lat="43.89498" lon="5.20896">
        <ele>323.62</ele>
        <time>2017-01-11T10:04:50Z</time>
      </trkpt>
      <trkpt lat="43.895" lon="5.20883">
        <ele>325.54</ele>
        <time>2017-01-11T10:05:08Z</time>
      </trkpt>
      <trkpt lat="43.89503" lon="5.20873">
        <ele>326.99</ele>
        <time>2017-01-11T10:05:26Z</time>
      </trkpt>
      <trkpt lat="43.89495" lon="5.2087">
        <ele>326.02</ele>
        <time>2017-01-11T10:05:39Z</time>
      </trkpt>
      <trkpt lat="43.89496" lon="5.20856">
        <ele>326.5</ele>
        <time>2017-01-11T10:05:53Z</time>
      </trkpt>
      <trkpt lat="43.89497" lon="5.20843">
        <ele>323.14</ele>
        <time>2017-01-11T10:06:10Z</time>
      </trkpt>
      <trkpt lat="43.89499" lon="5.20827">
        <ele>324.1</ele>
        <time>2017-01-11T10:06:27Z</time>
      </trkpt>
      <trkpt lat="43.89498" lon="5.20814">
        <ele>322.66</ele>
        <time>2017-01-11T10:06:42Z</time>
      </trkpt>
      <trkpt lat="43.89495" lon="5.20801">
        <ele>320.74</ele>
        <time>2017-01-11T10:06:59Z</time>
      </trkpt>
      <trkpt lat="43.89487" lon="5.20799">
        <ele>322.18</ele>
        <time>2017-01-11T10:07:13Z</time>
      </trkpt>
      <trkpt lat="43.8949" lon="5.20788">
        <ele>320.26</ele>
        <time>2017-01-11T10:07:27Z</time>
      </trkpt>
      <trkpt lat="43.89493" lon="5.2078">
        <ele>316.89</ele>
        <time>2017-01-11T10:07:40Z</time>
      </trkpt>
      <trkpt lat="43.89494" lon="5.20767">
        <ele>316.89</ele>
        <time>2017-01-11T10:07:53Z</time>
      </trkpt>
      <trkpt lat="43.89497" lon="5.20761">
        <ele>317.37</ele>
        <time>2017-01-11T10:07:59Z</time>
      </trkpt>
      <trkpt lat="43.89497" lon="5.2074">
        <ele>316.41</ele>
        <time>2017-01-11T10:08:16Z</time>
      </trkpt>
      <trkpt lat="43.89504" lon="5.20732">
        <ele>315.45</ele>
        <time>2017-01-11T10:08:30Z</time>
      </trkpt>
      <trkpt lat="43.89505" lon="5.20719">
        <ele>316.41</ele>
        <time>2017-01-11T10:08:44Z</time>
      </trkpt>
      <trkpt lat="43.8951" lon="5.20704">
        <ele>315.93</ele>
        <time>2017-01-11T10:09:00Z</time>
      </trkpt>
      <trkpt lat="43.89509" lon="5.20694">
        <ele>316.41</ele>
        <time>2017-01-11T10:09:09Z</time>
      </trkpt>
      <trkpt lat="43.89503" lon="5.20685">
        <ele>315.93</ele>
        <time>2017-01-11T10:09:23Z</time>
      </trkpt>
      <trkpt lat="43.89498" lon="5.20679">
        <ele>317.85</ele>
        <time>2017-01-11T10:09:45Z</time>
      </trkpt>
      <trkpt lat="43.89491" lon="5.20672">
        <ele>318.33</ele>
        <time>2017-01-11T10:09:59Z</time>
      </trkpt>
      <trkpt lat="43.89478" lon="5.20677">
        <ele>317.37</ele>
        <time>2017-01-11T10:10:18Z</time>
      </trkpt>
      <trkpt lat="43.89463" lon="5.20686">
        <ele>317.85</ele>
        <time>2017-01-11T10:10:35Z</time>
      </trkpt>
      <trkpt lat="43.89452" lon="5.20693">
        <ele>318.81</ele>
        <time>2017-01-11T10:10:51Z</time>
      </trkpt>
      <trkpt lat="43.89441" lon="5.20698">
        <ele>318.33</ele>
        <time>2017-01-11T10:11:09Z</time>
      </trkpt>
      <trkpt lat="43.89431" lon="5.20701">
        <ele>317.37</ele>
        <time>2017-01-11T10:11:26Z</time>
      </trkpt>
      <trkpt lat="43.89422" lon="5.20707">
        <ele>317.85</ele>
        <time>2017-01-11T10:11:45Z</time>
      </trkpt>
      <trkpt lat="43.8941" lon="5.20714">
        <ele>317.37</ele>
        <time>2017-01-11T10:12:02Z</time>
      </trkpt>
      <trkpt lat="43.89395" lon="5.20708">
        <ele>314.49</ele>
        <time>2017-01-11T10:12:20Z</time>
      </trkpt>
      <trkpt lat="43.89393" lon="5.20707">
        <ele>313.53</ele>
        <time>2017-01-11T10:12:37Z</time>
      </trkpt>
      <trkpt lat="43.89392" lon="5.20706">
        <ele>314.97</ele>
        <time>2017-01-11T10:12:53Z</time>
      </trkpt>
      <trkpt lat="43.89388" lon="5.20701">
        <ele>315.45</ele>
        <time>2017-01-11T10:13:21Z</time>
      </trkpt>
      <trkpt lat="43.89389" lon="5.20696">
        <ele>314.49</ele>
        <time>2017-01-11T10:13:26Z</time>
      </trkpt>
      <trkpt lat="43.89397" lon="5.20677">
        <ele>314.49</ele>
        <time>2017-01-11T10:13:42Z</time>
      </trkpt>
      <trkpt lat="43.89407" lon="5.20666">
        <ele>311.6</ele>
        <time>2017-01-11T10:13:57Z</time>
      </trkpt>
      <trkpt lat="43.89412" lon="5.20656">
        <ele>309.68</ele>
        <time>2017-01-11T10:14:11Z</time>
      </trkpt>
      <trkpt lat="43.89404" lon="5.20647">
        <ele>306.8</ele>
        <time>2017-01-11T10:14:27Z</time>
      </trkpt>
      <trkpt lat="43.89393" lon="5.20633">
        <ele>307.76</ele>
        <time>2017-01-11T10:14:44Z</time>
      </trkpt>
      <trkpt lat="43.8939" lon="5.20628">
        <ele>308.24</ele>
        <time>2017-01-11T10:14:49Z</time>
      </trkpt>
      <trkpt lat="43.89396" lon="5.20608">
        <ele>310.16</ele>
        <time>2017-01-11T10:15:06Z</time>
      </trkpt>
      <trkpt lat="43.89397" lon="5.20605">
        <ele>310.16</ele>
        <time>2017-01-11T10:15:08Z</time>
      </trkpt>
      <trkpt lat="43.89408" lon="5.20586">
        <ele>307.76</ele>
        <time>2017-01-11T10:15:25Z</time>
      </trkpt>
      <trkpt lat="43.89408" lon="5.20572">
        <ele>307.76</ele>
        <time>2017-01-11T10:15:36Z</time>
      </trkpt>
      <trkpt lat="43.89404" lon="5.20565">
        <ele>306.32</ele>
        <time>2017-01-11T10:15:42Z</time>
      </trkpt>
      <trkpt lat="43.89392" lon="5.20552">
        <ele>305.36</ele>
        <time>2017-01-11T10:15:57Z</time>
      </trkpt>
      <trkpt lat="43.89376" lon="5.20544">
        <ele>305.84</ele>
        <time>2017-01-11T10:16:14Z</time>
      </trkpt>
      <trkpt lat="43.89365" lon="5.20537">
        <ele>306.32</ele>
        <time>2017-01-11T10:16:29Z</time>
      </trkpt>
      <trkpt lat="43.89355" lon="5.20533">
        <ele>306.32</ele>
        <time>2017-01-11T10:16:42Z</time>
      </trkpt>
      <trkpt lat="43.89343" lon="5.20529">
        <ele>305.36</ele>
        <time>2017-01-11T10:16:57Z</time>
      </trkpt>
      <trkpt lat="43.89328" lon="5.20524">
        <ele>305.84</ele>
        <time>2017-01-11T10:17:13Z</time>
      </trkpt>
      <trkpt lat="43.89313" lon="5.2052">
        <ele>303.91</ele>
        <time>2017-01-11T10:17:30Z</time>
      </trkpt>
      <trkpt lat="43.89311" lon="5.20511">
        <ele>303.43</ele>
        <time>2017-01-11T10:17:44Z</time>
      </trkpt>
      <trkpt lat="43.89311" lon="5.20506">
        <ele>303.91</ele>
        <time>2017-01-11T10:18:06Z</time>
      </trkpt>
      <trkpt lat="43.89317" lon="5.20489">
        <ele>304.88</ele>
        <time>2017-01-11T10:18:21Z</time>
      </trkpt>
      <trkpt lat="43.89318" lon="5.20485">
        <ele>305.84</ele>
        <time>2017-01-11T10:18:25Z</time>
      </trkpt>
      <trkpt lat="43.89322" lon="5.20471">
        <ele>305.36</ele>
        <time>2017-01-11T10:18:37Z</time>
      </trkpt>
      <trkpt lat="43.89328" lon="5.20454">
        <ele>304.39</ele>
        <time>2017-01-11T10:18:51Z</time>
      </trkpt>
      <trkpt lat="43.89333" lon="5.20436">
        <ele>305.36</ele>
        <time>2017-01-11T10:19:06Z</time>
      </trkpt>
      <trkpt lat="43.89339" lon="5.20416">
        <ele>304.88</ele>
        <time>2017-01-11T10:19:23Z</time>
      </trkpt>
      <trkpt lat="43.89342" lon="5.20398">
        <ele>302.95</ele>
        <time>2017-01-11T10:19:39Z</time>
      </trkpt>
      <trkpt lat="43.89342" lon="5.20395">
        <ele>302.95</ele>
        <time>2017-01-11T10:19:41Z</time>
      </trkpt>
      <trkpt lat="43.89346" lon="5.2037">
        <ele>303.91</ele>
        <time>2017-01-11T10:19:58Z</time>
      </trkpt>
      <trkpt lat="43.89354" lon="5.20351">
        <ele>304.39</ele>
        <time>2017-01-11T10:20:14Z</time>
      </trkpt>
      <trkpt lat="43.89359" lon="5.20334">
        <ele>303.43</ele>
        <time>2017-01-11T10:20:29Z</time>
      </trkpt>
      <trkpt lat="43.89363" lon="5.20321">
        <ele>304.88</ele>
        <time>2017-01-11T10:20:40Z</time>
      </trkpt>
      <trkpt lat="43.89367" lon="5.20296">
        <ele>304.88</ele>
        <time>2017-01-11T10:20:58Z</time>
      </trkpt>
      <trkpt lat="43.89368" lon="5.20287">
        <ele>306.8</ele>
        <time>2017-01-11T10:21:13Z</time>
      </trkpt>
      <trkpt lat="43.89366" lon="5.20272">
        <ele>306.32</ele>
        <time>2017-01-11T10:21:26Z</time>
      </trkpt>
      <trkpt lat="43.89366" lon="5.20249">
        <ele>303.91</ele>
        <time>2017-01-11T10:21:45Z</time>
      </trkpt>
      <trkpt lat="43.89368" lon="5.20231">
        <ele>301.03</ele>
        <time>2017-01-11T10:22:00Z</time>
      </trkpt>
      <trkpt lat="43.8937" lon="5.2021">
        <ele>301.51</ele>
        <time>2017-01-11T10:22:16Z</time>
      </trkpt>
      <trkpt lat="43.89368" lon="5.2019">
        <ele>301.03</ele>
        <time>2017-01-11T10:22:32Z</time>
      </trkpt>
      <trkpt lat="43.89367" lon="5.20187">
        <ele>301.03</ele>
        <time>2017-01-11T10:22:35Z</time>
      </trkpt>
      <trkpt lat="43.89364" lon="5.20168">
        <ele>300.07</ele>
        <time>2017-01-11T10:22:51Z</time>
      </trkpt>
      <trkpt lat="43.89361" lon="5.20151">
        <ele>298.15</ele>
        <time>2017-01-11T10:23:07Z</time>
      </trkpt>
      <trkpt lat="43.89359" lon="5.20131">
        <ele>297.18</ele>
        <time>2017-01-11T10:23:22Z</time>
      </trkpt>
      <trkpt lat="43.89359" lon="5.20123">
        <ele>297.18</ele>
        <time>2017-01-11T10:23:29Z</time>
      </trkpt>
      <trkpt lat="43.89357" lon="5.20106">
        <ele>295.74</ele>
        <time>2017-01-11T10:23:42Z</time>
      </trkpt>
      <trkpt lat="43.89354" lon="5.20093">
        <ele>294.3</ele>
        <time>2017-01-11T10:23:54Z</time>
      </trkpt>
      <trkpt lat="43.89356" lon="5.20077">
        <ele>294.3</ele>
        <time>2017-01-11T10:24:09Z</time>
      </trkpt>
      <trkpt lat="43.89357" lon="5.20072">
        <ele>294.3</ele>
        <time>2017-01-11T10:24:13Z</time>
      </trkpt>
      <trkpt lat="43.89357" lon="5.20061">
        <ele>292.86</ele>
        <time>2017-01-11T10:24:22Z</time>
      </trkpt>
      <trkpt lat="43.89354" lon="5.20045">
        <ele>291.42</ele>
        <time>2017-01-11T10:24:36Z</time>
      </trkpt>
      <trkpt lat="43.8935" lon="5.20025">
        <ele>292.38</ele>
        <time>2017-01-11T10:24:51Z</time>
      </trkpt>
      <trkpt lat="43.89349" lon="5.20017">
        <ele>291.9</ele>
        <time>2017-01-11T10:25:04Z</time>
      </trkpt>
      <trkpt lat="43.89349" lon="5.20013">
        <ele>290.94</ele>
        <time>2017-01-11T10:25:20Z</time>
      </trkpt>
      <trkpt lat="43.89351" lon="5.20001">
        <ele>289.49</ele>
        <time>2017-01-11T10:25:35Z</time>
      </trkpt>
      <trkpt lat="43.89352" lon="5.19987">
        <ele>288.53</ele>
        <time>2017-01-11T10:25:47Z</time>
      </trkpt>
      <trkpt lat="43.89355" lon="5.19971">
        <ele>289.01</ele>
        <time>2017-01-11T10:26:02Z</time>
      </trkpt>
      <trkpt lat="43.89356" lon="5.19964">
        <ele>289.01</ele>
        <time>2017-01-11T10:26:18Z</time>
      </trkpt>
      <trkpt lat="43.89361" lon="5.19943">
        <ele>287.57</ele>
        <time>2017-01-11T10:26:35Z</time>
      </trkpt>
      <trkpt lat="43.89364" lon="5.19926">
        <ele>288.05</ele>
        <time>2017-01-11T10:26:50Z</time>
      </trkpt>
      <trkpt lat="43.89367" lon="5.19912">
        <ele>286.61</ele>
        <time>2017-01-11T10:27:06Z</time>
      </trkpt>
      <trkpt lat="43.89367" lon="5.19902">
        <ele>286.61</ele>
        <time>2017-01-11T10:27:24Z</time>
      </trkpt>
      <trkpt lat="43.89367" lon="5.19902">
        <ele>286.61</ele>
        <time>2017-01-11T10:27:46Z</time>
      </trkpt>
      <trkpt lat="43.89369" lon="5.19894">
        <ele>287.57</ele>
        <time>2017-01-11T10:28:01Z</time>
      </trkpt>
      <trkpt lat="43.89365" lon="5.19885">
        <ele>288.53</ele>
        <time>2017-01-11T10:28:13Z</time>
      </trkpt>
      <trkpt lat="43.89366" lon="5.19889">
        <ele>287.57</ele>
        <time>2017-01-11T10:28:30Z</time>
      </trkpt>
      <trkpt lat="43.89373" lon="5.199">
        <ele>282.28</ele>
        <time>2017-01-11T10:28:42Z</time>
      </trkpt>
      <trkpt lat="43.8938" lon="5.19906">
        <ele>279.4</ele>
        <time>2017-01-11T10:28:49Z</time>
      </trkpt>
      <trkpt lat="43.89393" lon="5.19919">
        <ele>275.07</ele>
        <time>2017-01-11T10:29:06Z</time>
      </trkpt>
      <trkpt lat="43.89405" lon="5.19931">
        <ele>273.63</ele>
        <time>2017-01-11T10:29:21Z</time>
      </trkpt>
      <trkpt lat="43.89414" lon="5.19939">
        <ele>271.71</ele>
        <time>2017-01-11T10:29:35Z</time>
      </trkpt>
      <trkpt lat="43.89423" lon="5.1995">
        <ele>269.31</ele>
        <time>2017-01-11T10:29:51Z</time>
      </trkpt>
      <trkpt lat="43.8943" lon="5.19964">
        <ele>266.42</ele>
        <time>2017-01-11T10:30:07Z</time>
      </trkpt>
      <trkpt lat="43.89435" lon="5.19972">
        <ele>261.62</ele>
        <time>2017-01-11T10:30:19Z</time>
      </trkpt>
      <trkpt lat="43.8944" lon="5.19982">
        <ele>259.21</ele>
        <time>2017-01-11T10:30:33Z</time>
      </trkpt>
      <trkpt lat="43.8945" lon="5.2">
        <ele>258.25</ele>
        <time>2017-01-11T10:30:49Z</time>
      </trkpt>
      <trkpt lat="43.8946" lon="5.20012">
        <ele>256.33</ele>
        <time>2017-01-11T10:31:04Z</time>
      </trkpt>
      <trkpt lat="43.89469" lon="5.20026">
        <ele>256.81</ele>
        <time>2017-01-11T10:31:19Z</time>
      </trkpt>
      <trkpt lat="43.89476" lon="5.20037">
        <ele>252.96</ele>
        <time>2017-01-11T10:31:35Z</time>
      </trkpt>
      <trkpt lat="43.89485" lon="5.20047">
        <ele>252.96</ele>
        <time>2017-01-11T10:31:47Z</time>
      </trkpt>
      <trkpt lat="43.89486" lon="5.20051">
        <ele>252</ele>
        <time>2017-01-11T10:31:51Z</time>
      </trkpt>
      <trkpt lat="43.89494" lon="5.20059">
        <ele>250.08</ele>
        <time>2017-01-11T10:32:06Z</time>
      </trkpt>
      <trkpt lat="43.89503" lon="5.20066">
        <ele>247.68</ele>
        <time>2017-01-11T10:32:20Z</time>
      </trkpt>
      <trkpt lat="43.89515" lon="5.2007">
        <ele>246.72</ele>
        <time>2017-01-11T10:32:34Z</time>
      </trkpt>
      <trkpt lat="43.89525" lon="5.20072">
        <ele>245.75</ele>
        <time>2017-01-11T10:32:46Z</time>
      </trkpt>
      <trkpt lat="43.89534" lon="5.20074">
        <ele>244.31</ele>
        <time>2017-01-11T10:33:02Z</time>
      </trkpt>
      <trkpt lat="43.89542" lon="5.20076">
        <ele>241.91</ele>
        <time>2017-01-11T10:33:13Z</time>
      </trkpt>
      <trkpt lat="43.89551" lon="5.20079">
        <ele>240.47</ele>
        <time>2017-01-11T10:33:28Z</time>
      </trkpt>
      <trkpt lat="43.89563" lon="5.20083">
        <ele>237.58</ele>
        <time>2017-01-11T10:33:46Z</time>
      </trkpt>
      <trkpt lat="43.89572" lon="5.20088">
        <ele>235.66</ele>
        <time>2017-01-11T10:34:02Z</time>
      </trkpt>
      <trkpt lat="43.89582" lon="5.20091">
        <ele>236.62</ele>
        <time>2017-01-11T10:34:15Z</time>
      </trkpt>
      <trkpt lat="43.89593" lon="5.20096">
        <ele>236.62</ele>
        <time>2017-01-11T10:34:28Z</time>
      </trkpt>
      <trkpt lat="43.89598" lon="5.20097">
        <ele>233.26</ele>
        <time>2017-01-11T10:34:42Z</time>
      </trkpt>
      <trkpt lat="43.89603" lon="5.20097">
        <ele>232.78</ele>
        <time>2017-01-11T10:34:59Z</time>
      </trkpt>
      <trkpt lat="43.89604" lon="5.20098">
        <ele>231.81</ele>
        <time>2017-01-11T10:35:18Z</time>
      </trkpt>
      <trkpt lat="43.89613" lon="5.20099">
        <ele>230.85</ele>
        <time>2017-01-11T10:35:35Z</time>
      </trkpt>
      <trkpt lat="43.89621" lon="5.20101">
        <ele>228.93</ele>
        <time>2017-01-11T10:35:49Z</time>
      </trkpt>
      <trkpt lat="43.8963" lon="5.20103">
        <ele>226.53</ele>
        <time>2017-01-11T10:36:04Z</time>
      </trkpt>
      <trkpt lat="43.89638" lon="5.20103">
        <ele>224.61</ele>
        <time>2017-01-11T10:36:17Z</time>
      </trkpt>
      <trkpt lat="43.8964" lon="5.20103">
        <ele>222.2</ele>
        <time>2017-01-11T10:36:25Z</time>
      </trkpt>
      <trkpt lat="43.89648" lon="5.20106">
        <ele>219.32</ele>
        <time>2017-01-11T10:36:39Z</time>
      </trkpt>
      <trkpt lat="43.89662" lon="5.2011">
        <ele>218.36</ele>
        <time>2017-01-11T10:36:54Z</time>
      </trkpt>
      <trkpt lat="43.89677" lon="5.20119">
        <ele>219.32</ele>
        <time>2017-01-11T10:37:10Z</time>
      </trkpt>
      <trkpt lat="43.89684" lon="5.20131">
        <ele>218.36</ele>
        <time>2017-01-11T10:37:26Z</time>
      </trkpt>
      <trkpt lat="43.89695" lon="5.20143">
        <ele>216.43</ele>
        <time>2017-01-11T10:37:42Z</time>
      </trkpt>
      <trkpt lat="43.89705" lon="5.20148">
        <ele>216.43</ele>
        <time>2017-01-11T10:37:57Z</time>
      </trkpt>
      <trkpt lat="43.89718" lon="5.20153">
        <ele>215.47</ele>
        <time>2017-01-11T10:38:12Z</time>
      </trkpt>
      <trkpt lat="43.89731" lon="5.20156">
        <ele>214.03</ele>
        <time>2017-01-11T10:38:24Z</time>
      </trkpt>
      <trkpt lat="43.89741" lon="5.20154">
        <ele>213.07</ele>
        <time>2017-01-11T10:38:36Z</time>
      </trkpt>
      <trkpt lat="43.89756" lon="5.20151">
        <ele>212.11</ele>
        <time>2017-01-11T10:38:51Z</time>
      </trkpt>
      <trkpt lat="43.89772" lon="5.2015">
        <ele>210.19</ele>
        <time>2017-01-11T10:39:08Z</time>
      </trkpt>
      <trkpt lat="43.89779" lon="5.20147">
        <ele>209.22</ele>
        <time>2017-01-11T10:39:19Z</time>
      </trkpt>
      <trkpt lat="43.89796" lon="5.20142">
        <ele>208.74</ele>
        <time>2017-01-11T10:39:35Z</time>
      </trkpt>
      <trkpt lat="43.89812" lon="5.20139">
        <ele>206.34</ele>
        <time>2017-01-11T10:39:52Z</time>
      </trkpt>
      <trkpt lat="43.89821" lon="5.20127">
        <ele>207.78</ele>
        <time>2017-01-11T10:40:06Z</time>
      </trkpt>
      <trkpt lat="43.89819" lon="5.20121">
        <ele>212.59</ele>
        <time>2017-01-11T10:40:27Z</time>
      </trkpt>
      <trkpt lat="43.89819" lon="5.20121">
        <ele>216.43</ele>
        <time>2017-01-11T10:40:45Z</time>
      </trkpt>
      <trkpt lat="43.89819" lon="5.2012">
        <ele>219.32</ele>
        <time>2017-01-11T10:41:04Z</time>
      </trkpt>
      <trkpt lat="43.89817" lon="5.20122">
        <ele>219.8</ele>
        <time>2017-01-11T10:41:25Z</time>
      </trkpt>
      <trkpt lat="43.89815" lon="5.20121">
        <ele>219.32</ele>
        <time>2017-01-11T10:41:40Z</time>
      </trkpt>
      <trkpt lat="43.89816" lon="5.20123">
        <ele>214.03</ele>
        <time>2017-01-11T10:41:56Z</time>
      </trkpt>
      <trkpt lat="43.8982" lon="5.2012">
        <ele>214.03</ele>
        <time>2017-01-11T10:42:09Z</time>
      </trkpt>
      <trkpt lat="43.89819" lon="5.20119">
        <ele>215.95</ele>
        <time>2017-01-11T10:42:34Z</time>
      </trkpt>
      <trkpt lat="43.89821" lon="5.20116">
        <ele>217.4</ele>
        <time>2017-01-11T10:42:58Z</time>
      </trkpt>
      <trkpt lat="43.8982" lon="5.20114">
        <ele>216.91</ele>
        <time>2017-01-11T10:43:16Z</time>
      </trkpt>
      <trkpt lat="43.89818" lon="5.20109">
        <ele>217.88</ele>
        <time>2017-01-11T10:43:39Z</time>
      </trkpt>
      <trkpt lat="43.89817" lon="5.20108">
        <ele>217.88</ele>
        <time>2017-01-11T10:43:54Z</time>
      </trkpt>
      <trkpt lat="43.89814" lon="5.20104">
        <ele>218.36</ele>
        <time>2017-01-11T10:43:58Z</time>
      </trkpt>
      <trkpt lat="43.89807" lon="5.20086">
        <ele>219.8</ele>
        <time>2017-01-11T10:44:14Z</time>
      </trkpt>
      <trkpt lat="43.89798" lon="5.20067">
        <ele>220.76</ele>
        <time>2017-01-11T10:44:30Z</time>
      </trkpt>
      <trkpt lat="43.89788" lon="5.20049">
        <ele>221.72</ele>
        <time>2017-01-11T10:44:45Z</time>
      </trkpt>
      <trkpt lat="43.89776" lon="5.20022">
        <ele>223.16</ele>
        <time>2017-01-11T10:45:03Z</time>
      </trkpt>
      <trkpt lat="43.89765" lon="5.2">
        <ele>224.61</ele>
        <time>2017-01-11T10:45:19Z</time>
      </trkpt>
      <trkpt lat="43.89754" lon="5.19977">
        <ele>226.53</ele>
        <time>2017-01-11T10:45:36Z</time>
      </trkpt>
      <trkpt lat="43.89747" lon="5.1996">
        <ele>227.01</ele>
        <time>2017-01-11T10:45:52Z</time>
      </trkpt>
      <trkpt lat="43.89735" lon="5.19934">
        <ele>227.49</ele>
        <time>2017-01-11T10:46:10Z</time>
      </trkpt>
      <trkpt lat="43.89726" lon="5.19909">
        <ele>228.45</ele>
        <time>2017-01-11T10:46:27Z</time>
      </trkpt>
      <trkpt lat="43.89722" lon="5.19894">
        <ele>228.45</ele>
        <time>2017-01-11T10:46:41Z</time>
      </trkpt>
      <trkpt lat="43.89716" lon="5.19875">
        <ele>230.37</ele>
        <time>2017-01-11T10:46:57Z</time>
      </trkpt>
      <trkpt lat="43.8971" lon="5.19859">
        <ele>231.81</ele>
        <time>2017-01-11T10:47:12Z</time>
      </trkpt>
      <trkpt lat="43.89702" lon="5.19839">
        <ele>234.22</ele>
        <time>2017-01-11T10:47:26Z</time>
      </trkpt>
      <trkpt lat="43.89688" lon="5.19818">
        <ele>235.66</ele>
        <time>2017-01-11T10:47:45Z</time>
      </trkpt>
      <trkpt lat="43.89678" lon="5.19794">
        <ele>237.58</ele>
        <time>2017-01-11T10:48:02Z</time>
      </trkpt>
      <trkpt lat="43.89671" lon="5.19773">
        <ele>237.1</ele>
        <time>2017-01-11T10:48:18Z</time>
      </trkpt>
      <trkpt lat="43.89671" lon="5.1977">
        <ele>237.58</ele>
        <time>2017-01-11T10:48:20Z</time>
      </trkpt>
      <trkpt lat="43.89669" lon="5.19764">
        <ele>237.1</ele>
        <time>2017-01-11T10:48:24Z</time>
      </trkpt>
      <trkpt lat="43.89665" lon="5.19739">
        <ele>237.58</ele>
        <time>2017-01-11T10:48:40Z</time>
      </trkpt>
      <trkpt lat="43.89656" lon="5.19708">
        <ele>239.51</ele>
        <time>2017-01-11T10:49:00Z</time>
      </trkpt>
      <trkpt lat="43.89648" lon="5.19685">
        <ele>240.95</ele>
        <time>2017-01-11T10:49:17Z</time>
      </trkpt>
      <trkpt lat="43.89639" lon="5.19661">
        <ele>242.87</ele>
        <time>2017-01-11T10:49:35Z</time>
      </trkpt>
      <trkpt lat="43.89635" lon="5.19647">
        <ele>244.31</ele>
        <time>2017-01-11T10:49:49Z</time>
      </trkpt>
      <trkpt lat="43.89633" lon="5.19626">
        <ele>243.35</ele>
        <time>2017-01-11T10:50:06Z</time>
      </trkpt>
      <trkpt lat="43.89631" lon="5.19609">
        <ele>242.87</ele>
        <time>2017-01-11T10:50:19Z</time>
      </trkpt>
      <trkpt lat="43.89629" lon="5.19592">
        <ele>242.39</ele>
        <time>2017-01-11T10:50:34Z</time>
      </trkpt>
      <trkpt lat="43.8963" lon="5.19574">
        <ele>241.91</ele>
        <time>2017-01-11T10:50:49Z</time>
      </trkpt>
      <trkpt lat="43.8963" lon="5.19556">
        <ele>239.51</ele>
        <time>2017-01-11T10:51:03Z</time>
      </trkpt>
      <trkpt lat="43.89631" lon="5.19536">
        <ele>239.51</ele>
        <time>2017-01-11T10:51:19Z</time>
      </trkpt>
      <trkpt lat="43.89631" lon="5.19521">
        <ele>242.39</ele>
        <time>2017-01-11T10:51:32Z</time>
      </trkpt>
      <trkpt lat="43.89627" lon="5.19506">
        <ele>241.91</ele>
        <time>2017-01-11T10:51:46Z</time>
      </trkpt>
      <trkpt lat="43.89623" lon="5.19492">
        <ele>243.83</ele>
        <time>2017-01-11T10:52:01Z</time>
      </trkpt>
      <trkpt lat="43.89616" lon="5.1948">
        <ele>248.16</ele>
        <time>2017-01-11T10:52:16Z</time>
      </trkpt>
      <trkpt lat="43.89613" lon="5.19467">
        <ele>253.93</ele>
        <time>2017-01-11T10:52:30Z</time>
      </trkpt>
      <trkpt lat="43.89608" lon="5.19451">
        <ele>257.29</ele>
        <time>2017-01-11T10:52:47Z</time>
      </trkpt>
      <trkpt lat="43.89606" lon="5.19438">
        <ele>258.73</ele>
        <time>2017-01-11T10:53:01Z</time>
      </trkpt>
      <trkpt lat="43.89601" lon="5.1942">
        <ele>259.21</ele>
        <time>2017-01-11T10:53:17Z</time>
      </trkpt>
      <trkpt lat="43.89594" lon="5.194">
        <ele>260.65</ele>
        <time>2017-01-11T10:53:34Z</time>
      </trkpt>
      <trkpt lat="43.89587" lon="5.19385">
        <ele>263.06</ele>
        <time>2017-01-11T10:53:49Z</time>
      </trkpt>
      <trkpt lat="43.89581" lon="5.19368">
        <ele>264.02</ele>
        <time>2017-01-11T10:54:05Z</time>
      </trkpt>
      <trkpt lat="43.89581" lon="5.1936">
        <ele>264.02</ele>
        <time>2017-01-11T10:54:22Z</time>
      </trkpt>
      <trkpt lat="43.8958" lon="5.19351">
        <ele>264.5</ele>
        <time>2017-01-11T10:54:36Z</time>
      </trkpt>
      <trkpt lat="43.89576" lon="5.19337">
        <ele>267.86</ele>
        <time>2017-01-11T10:54:51Z</time>
      </trkpt>
      <trkpt lat="43.89573" lon="5.19331">
        <ele>269.31</ele>
        <time>2017-01-11T10:54:58Z</time>
      </trkpt>
      <trkpt lat="43.89569" lon="5.19321">
        <ele>270.27</ele>
        <time>2017-01-11T10:55:07Z</time>
      </trkpt>
      <trkpt lat="43.89564" lon="5.19304">
        <ele>269.79</ele>
        <time>2017-01-11T10:55:22Z</time>
      </trkpt>
      <trkpt lat="43.89559" lon="5.19285">
        <ele>271.23</ele>
        <time>2017-01-11T10:55:39Z</time>
      </trkpt>
      <trkpt lat="43.89556" lon="5.19284">
        <ele>274.11</ele>
        <time>2017-01-11T10:55:59Z</time>
      </trkpt>
      <trkpt lat="43.89555" lon="5.19282">
        <ele>275.07</ele>
        <time>2017-01-11T10:56:17Z</time>
      </trkpt>
      <trkpt lat="43.89557" lon="5.19283">
        <ele>274.59</ele>
        <time>2017-01-11T10:56:34Z</time>
      </trkpt>
      <trkpt lat="43.89555" lon="5.19283">
        <ele>275.07</ele>
        <time>2017-01-11T10:56:50Z</time>
      </trkpt>
      <trkpt lat="43.89559" lon="5.19284">
        <ele>273.15</ele>
        <time>2017-01-11T10:57:13Z</time>
      </trkpt>
      <trkpt lat="43.89568" lon="5.19282">
        <ele>270.75</ele>
        <time>2017-01-11T10:57:29Z</time>
      </trkpt>
      <trkpt lat="43.89571" lon="5.19284">
        <ele>272.19</ele>
        <time>2017-01-11T10:57:54Z</time>
      </trkpt>
      <trkpt lat="43.89571" lon="5.19285">
        <ele>270.75</ele>
        <time>2017-01-11T10:58:19Z</time>
      </trkpt>
      <trkpt lat="43.89573" lon="5.19279">
        <ele>271.71</ele>
        <time>2017-01-11T10:58:33Z</time>
      </trkpt>
      <trkpt lat="43.89573" lon="5.1928">
        <ele>273.15</ele>
        <time>2017-01-11T10:58:52Z</time>
      </trkpt>
      <trkpt lat="43.89573" lon="5.19279">
        <ele>274.59</ele>
        <time>2017-01-11T10:59:13Z</time>
      </trkpt>
      <trkpt lat="43.89582" lon="5.19285">
        <ele>273.63</ele>
        <time>2017-01-11T10:59:31Z</time>
      </trkpt>
      <trkpt lat="43.89598" lon="5.19293">
        <ele>270.27</ele>
        <time>2017-01-11T10:59:47Z</time>
      </trkpt>
      <trkpt lat="43.89607" lon="5.19298">
        <ele>269.79</ele>
        <time>2017-01-11T11:00:01Z</time>
      </trkpt>
      <trkpt lat="43.89624" lon="5.19309">
        <ele>269.31</ele>
        <time>2017-01-11T11:00:19Z</time>
      </trkpt>
      <trkpt lat="43.89642" lon="5.19319">
        <ele>267.38</ele>
        <time>2017-01-11T11:00:36Z</time>
      </trkpt>
      <trkpt lat="43.89663" lon="5.19327">
        <ele>267.86</ele>
        <time>2017-01-11T11:00:55Z</time>
      </trkpt>
      <trkpt lat="43.89679" lon="5.19337">
        <ele>266.9</ele>
        <time>2017-01-11T11:01:11Z</time>
      </trkpt>
      <trkpt lat="43.89697" lon="5.1935">
        <ele>265.94</ele>
        <time>2017-01-11T11:01:29Z</time>
      </trkpt>
      <trkpt lat="43.89716" lon="5.19358">
        <ele>266.42</ele>
        <time>2017-01-11T11:01:47Z</time>
      </trkpt>
      <trkpt lat="43.89734" lon="5.19375">
        <ele>267.86</ele>
        <time>2017-01-11T11:02:07Z</time>
      </trkpt>
      <trkpt lat="43.89753" lon="5.19392">
        <ele>269.31</ele>
        <time>2017-01-11T11:02:29Z</time>
      </trkpt>
      <trkpt lat="43.89769" lon="5.19403">
        <ele>267.86</ele>
        <time>2017-01-11T11:02:46Z</time>
      </trkpt>
      <trkpt lat="43.89784" lon="5.19414">
        <ele>269.31</ele>
        <time>2017-01-11T11:03:02Z</time>
      </trkpt>
      <trkpt lat="43.89787" lon="5.19415">
        <ele>270.27</ele>
        <time>2017-01-11T11:03:05Z</time>
      </trkpt>
      <trkpt lat="43.8981" lon="5.19413">
        <ele>269.79</ele>
        <time>2017-01-11T11:03:24Z</time>
      </trkpt>
      <trkpt lat="43.89826" lon="5.19408">
        <ele>270.27</ele>
        <time>2017-01-11T11:03:41Z</time>
      </trkpt>
      <trkpt lat="43.8984" lon="5.19411">
        <ele>271.71</ele>
        <time>2017-01-11T11:03:54Z</time>
      </trkpt>
      <trkpt lat="43.89853" lon="5.19413">
        <ele>272.67</ele>
        <time>2017-01-11T11:04:09Z</time>
      </trkpt>
      <trkpt lat="43.89873" lon="5.1942">
        <ele>272.67</ele>
        <time>2017-01-11T11:04:27Z</time>
      </trkpt>
      <trkpt lat="43.89892" lon="5.19428">
        <ele>276.04</ele>
        <time>2017-01-11T11:04:44Z</time>
      </trkpt>
      <trkpt lat="43.89912" lon="5.19437">
        <ele>276.04</ele>
        <time>2017-01-11T11:05:02Z</time>
      </trkpt>
      <trkpt lat="43.89928" lon="5.19444">
        <ele>277.48</ele>
        <time>2017-01-11T11:05:18Z</time>
      </trkpt>
      <trkpt lat="43.89946" lon="5.19451">
        <ele>277.96</ele>
        <time>2017-01-11T11:05:36Z</time>
      </trkpt>
      <trkpt lat="43.89964" lon="5.19454">
        <ele>280.36</ele>
        <time>2017-01-11T11:05:53Z</time>
      </trkpt>
      <trkpt lat="43.89981" lon="5.19459">
        <ele>278.92</ele>
        <time>2017-01-11T11:06:11Z</time>
      </trkpt>
      <trkpt lat="43.89996" lon="5.19467">
        <ele>275.07</ele>
        <time>2017-01-11T11:06:27Z</time>
      </trkpt>
      <trkpt lat="43.90015" lon="5.19477">
        <ele>273.63</ele>
        <time>2017-01-11T11:06:45Z</time>
      </trkpt>
      <trkpt lat="43.9003" lon="5.19481">
        <ele>272.67</ele>
        <time>2017-01-11T11:07:00Z</time>
      </trkpt>
      <trkpt lat="43.90048" lon="5.19486">
        <ele>270.27</ele>
        <time>2017-01-11T11:07:17Z</time>
      </trkpt>
      <trkpt lat="43.90064" lon="5.19494">
        <ele>268.83</ele>
        <time>2017-01-11T11:07:32Z</time>
      </trkpt>
      <trkpt lat="43.90081" lon="5.19502">
        <ele>269.79</ele>
        <time>2017-01-11T11:07:46Z</time>
      </trkpt>
      <trkpt lat="43.90099" lon="5.19508">
        <ele>268.83</ele>
        <time>2017-01-11T11:08:04Z</time>
      </trkpt>
      <trkpt lat="43.90101" lon="5.19508">
        <ele>268.83</ele>
        <time>2017-01-11T11:08:06Z</time>
      </trkpt>
      <trkpt lat="43.90108" lon="5.19504">
        <ele>268.83</ele>
        <time>2017-01-11T11:08:12Z</time>
      </trkpt>
      <trkpt lat="43.90119" lon="5.19483">
        <ele>268.35</ele>
        <time>2017-01-11T11:08:31Z</time>
      </trkpt>
      <trkpt lat="43.90123" lon="5.19473">
        <ele>266.9</ele>
        <time>2017-01-11T11:08:41Z</time>
      </trkpt>
      <trkpt lat="43.90136" lon="5.19462">
        <ele>267.86</ele>
        <time>2017-01-11T11:08:56Z</time>
      </trkpt>
      <trkpt lat="43.90138" lon="5.19454">
        <ele>267.38</ele>
        <time>2017-01-11T11:09:02Z</time>
      </trkpt>
      <trkpt lat="43.9014" lon="5.1945">
        <ele>266.9</ele>
        <time>2017-01-11T11:09:07Z</time>
      </trkpt>
      <trkpt lat="43.90153" lon="5.19435">
        <ele>265.94</ele>
        <time>2017-01-11T11:09:24Z</time>
      </trkpt>
      <trkpt lat="43.90166" lon="5.19442">
        <ele>265.94</ele>
        <time>2017-01-11T11:09:40Z</time>
      </trkpt>
      <trkpt lat="43.90172" lon="5.19447">
        <ele>267.38</ele>
        <time>2017-01-11T11:09:47Z</time>
      </trkpt>
      <trkpt lat="43.90188" lon="5.19461">
        <ele>270.75</ele>
        <time>2017-01-11T11:10:03Z</time>
      </trkpt>
      <trkpt lat="43.90201" lon="5.19474">
        <ele>271.71</ele>
        <time>2017-01-11T11:10:19Z</time>
      </trkpt>
      <trkpt lat="43.90218" lon="5.19488">
        <ele>273.63</ele>
        <time>2017-01-11T11:10:37Z</time>
      </trkpt>
      <trkpt lat="43.90228" lon="5.19505">
        <ele>275.07</ele>
        <time>2017-01-11T11:10:54Z</time>
      </trkpt>
      <trkpt lat="43.90229" lon="5.19507">
        <ele>275.07</ele>
        <time>2017-01-11T11:10:55Z</time>
      </trkpt>
      <trkpt lat="43.90235" lon="5.19526">
        <ele>278.44</ele>
        <time>2017-01-11T11:11:12Z</time>
      </trkpt>
      <trkpt lat="43.90241" lon="5.19542">
        <ele>281.32</ele>
        <time>2017-01-11T11:11:27Z</time>
      </trkpt>
      <trkpt lat="43.90248" lon="5.19557">
        <ele>284.69</ele>
        <time>2017-01-11T11:11:42Z</time>
      </trkpt>
      <trkpt lat="43.90255" lon="5.19575">
        <ele>288.05</ele>
        <time>2017-01-11T11:11:58Z</time>
      </trkpt>
      <trkpt lat="43.90263" lon="5.19591">
        <ele>291.42</ele>
        <time>2017-01-11T11:12:14Z</time>
      </trkpt>
      <trkpt lat="43.90269" lon="5.19597">
        <ele>291.42</ele>
        <time>2017-01-11T11:12:22Z</time>
      </trkpt>
      <trkpt lat="43.90283" lon="5.19614">
        <ele>291.42</ele>
        <time>2017-01-11T11:12:39Z</time>
      </trkpt>
      <trkpt lat="43.90299" lon="5.19626">
        <ele>292.38</ele>
        <time>2017-01-11T11:12:56Z</time>
      </trkpt>
      <trkpt lat="43.90318" lon="5.19631">
        <ele>292.38</ele>
        <time>2017-01-11T11:13:14Z</time>
      </trkpt>
      <trkpt lat="43.90332" lon="5.19634">
        <ele>292.86</ele>
        <time>2017-01-11T11:13:27Z</time>
      </trkpt>
      <trkpt lat="43.90334" lon="5.19634">
        <ele>293.34</ele>
        <time>2017-01-11T11:13:29Z</time>
      </trkpt>
      <trkpt lat="43.90345" lon="5.1964">
        <ele>291.9</ele>
        <time>2017-01-11T11:13:40Z</time>
      </trkpt>
      <trkpt lat="43.90355" lon="5.19652">
        <ele>292.38</ele>
        <time>2017-01-11T11:13:53Z</time>
      </trkpt>
      <trkpt lat="43.90366" lon="5.19663">
        <ele>294.78</ele>
        <time>2017-01-11T11:14:09Z</time>
      </trkpt>
      <trkpt lat="43.90381" lon="5.19673">
        <ele>296.22</ele>
        <time>2017-01-11T11:14:27Z</time>
      </trkpt>
      <trkpt lat="43.90384" lon="5.19674">
        <ele>297.18</ele>
        <time>2017-01-11T11:14:30Z</time>
      </trkpt>
      <trkpt lat="43.90386" lon="5.19676">
        <ele>297.67</ele>
        <time>2017-01-11T11:14:33Z</time>
      </trkpt>
      <trkpt lat="43.90402" lon="5.1968">
        <ele>298.15</ele>
        <time>2017-01-11T11:14:49Z</time>
      </trkpt>
      <trkpt lat="43.90417" lon="5.19689">
        <ele>299.11</ele>
        <time>2017-01-11T11:15:04Z</time>
      </trkpt>
      <trkpt lat="43.9043" lon="5.19695">
        <ele>297.18</ele>
        <time>2017-01-11T11:15:16Z</time>
      </trkpt>
      <trkpt lat="43.90444" lon="5.19704">
        <ele>297.18</ele>
        <time>2017-01-11T11:15:31Z</time>
      </trkpt>
      <trkpt lat="43.90461" lon="5.19707">
        <ele>297.67</ele>
        <time>2017-01-11T11:15:47Z</time>
      </trkpt>
      <trkpt lat="43.90477" lon="5.19702">
        <ele>298.63</ele>
        <time>2017-01-11T11:16:03Z</time>
      </trkpt>
      <trkpt lat="43.90481" lon="5.19701">
        <ele>301.03</ele>
        <time>2017-01-11T11:16:18Z</time>
      </trkpt>
      <trkpt lat="43.90481" lon="5.197">
        <ele>302.47</ele>
        <time>2017-01-11T11:16:32Z</time>
      </trkpt>
      <trkpt lat="43.90481" lon="5.19701">
        <ele>303.91</ele>
        <time>2017-01-11T11:16:41Z</time>
      </trkpt>
      <trkpt lat="43.90492" lon="5.19697">
        <ele>306.32</ele>
        <time>2017-01-11T11:16:52Z</time>
      </trkpt>
      <trkpt lat="43.90505" lon="5.19703">
        <ele>308.72</ele>
        <time>2017-01-11T11:17:05Z</time>
      </trkpt>
      <trkpt lat="43.9052" lon="5.19711">
        <ele>310.64</ele>
        <time>2017-01-11T11:17:21Z</time>
      </trkpt>
      <trkpt lat="43.90538" lon="5.19719">
        <ele>313.05</ele>
        <time>2017-01-11T11:17:39Z</time>
      </trkpt>
      <trkpt lat="43.90555" lon="5.19727">
        <ele>314.97</ele>
        <time>2017-01-11T11:17:55Z</time>
      </trkpt>
      <trkpt lat="43.90578" lon="5.19738">
        <ele>317.37</ele>
        <time>2017-01-11T11:18:16Z</time>
      </trkpt>
      <trkpt lat="43.90582" lon="5.1974">
        <ele>318.33</ele>
        <time>2017-01-11T11:18:20Z</time>
      </trkpt>
      <trkpt lat="43.90588" lon="5.19741">
        <ele>318.81</ele>
        <time>2017-01-11T11:18:26Z</time>
      </trkpt>
      <trkpt lat="43.9059" lon="5.19742">
        <ele>318.81</ele>
        <time>2017-01-11T11:18:28Z</time>
      </trkpt>
      <trkpt lat="43.90609" lon="5.19741">
        <ele>317.85</ele>
        <time>2017-01-11T11:18:47Z</time>
      </trkpt>
      <trkpt lat="43.90625" lon="5.19736">
        <ele>318.81</ele>
        <time>2017-01-11T11:19:04Z</time>
      </trkpt>
      <trkpt lat="43.90642" lon="5.19732">
        <ele>320.74</ele>
        <time>2017-01-11T11:19:21Z</time>
      </trkpt>
      <trkpt lat="43.90662" lon="5.19727">
        <ele>321.22</ele>
        <time>2017-01-11T11:19:39Z</time>
      </trkpt>
      <trkpt lat="43.90663" lon="5.19726">
        <ele>321.22</ele>
        <time>2017-01-11T11:19:40Z</time>
      </trkpt>
      <trkpt lat="43.90681" lon="5.19719">
        <ele>321.22</ele>
        <time>2017-01-11T11:19:58Z</time>
      </trkpt>
      <trkpt lat="43.90693" lon="5.19716">
        <ele>324.1</ele>
        <time>2017-01-11T11:20:11Z</time>
      </trkpt>
      <trkpt lat="43.90709" lon="5.1973">
        <ele>325.54</ele>
        <time>2017-01-11T11:20:27Z</time>
      </trkpt>
      <trkpt lat="43.90725" lon="5.19746">
        <ele>326.02</ele>
        <time>2017-01-11T11:20:44Z</time>
      </trkpt>
      <trkpt lat="43.90744" lon="5.19761">
        <ele>326.99</ele>
        <time>2017-01-11T11:21:03Z</time>
      </trkpt>
      <trkpt lat="43.90754" lon="5.19773">
        <ele>327.47</ele>
        <time>2017-01-11T11:21:15Z</time>
      </trkpt>
      <trkpt lat="43.90768" lon="5.19783">
        <ele>327.95</ele>
        <time>2017-01-11T11:21:33Z</time>
      </trkpt>
      <trkpt lat="43.90773" lon="5.19789">
        <ele>325.54</ele>
        <time>2017-01-11T11:21:46Z</time>
      </trkpt>
      <trkpt lat="43.90772" lon="5.19791">
        <ele>324.1</ele>
        <time>2017-01-11T11:22:00Z</time>
      </trkpt>
      <trkpt lat="43.90773" lon="5.19798">
        <ele>322.18</ele>
        <time>2017-01-11T11:22:12Z</time>
      </trkpt>
      <trkpt lat="43.90787" lon="5.19799">
        <ele>320.26</ele>
        <time>2017-01-11T11:22:28Z</time>
      </trkpt>
      <trkpt lat="43.908" lon="5.19806">
        <ele>319.3</ele>
        <time>2017-01-11T11:22:45Z</time>
      </trkpt>
      <trkpt lat="43.90811" lon="5.19814">
        <ele>315.45</ele>
        <time>2017-01-11T11:23:00Z</time>
      </trkpt>
      <trkpt lat="43.90824" lon="5.19816">
        <ele>313.05</ele>
        <time>2017-01-11T11:23:17Z</time>
      </trkpt>
      <trkpt lat="43.90841" lon="5.19814">
        <ele>311.12</ele>
        <time>2017-01-11T11:23:33Z</time>
      </trkpt>
      <trkpt lat="43.90852" lon="5.19813">
        <ele>311.12</ele>
        <time>2017-01-11T11:23:47Z</time>
      </trkpt>
      <trkpt lat="43.90869" lon="5.19814">
        <ele>311.12</ele>
        <time>2017-01-11T11:24:06Z</time>
      </trkpt>
      <trkpt lat="43.90888" lon="5.19811">
        <ele>308.72</ele>
        <time>2017-01-11T11:24:24Z</time>
      </trkpt>
      <trkpt lat="43.90899" lon="5.19808">
        <ele>307.76</ele>
        <time>2017-01-11T11:24:39Z</time>
      </trkpt>
      <trkpt lat="43.90908" lon="5.19808">
        <ele>306.32</ele>
        <time>2017-01-11T11:24:52Z</time>
      </trkpt>
      <trkpt lat="43.9092" lon="5.19808">
        <ele>304.39</ele>
        <time>2017-01-11T11:25:07Z</time>
      </trkpt>
      <trkpt lat="43.9093" lon="5.19808">
        <ele>301.99</ele>
        <time>2017-01-11T11:25:21Z</time>
      </trkpt>
      <trkpt lat="43.90938" lon="5.19806">
        <ele>301.99</ele>
        <time>2017-01-11T11:25:34Z</time>
      </trkpt>
      <trkpt lat="43.90949" lon="5.19808">
        <ele>301.51</ele>
        <time>2017-01-11T11:25:49Z</time>
      </trkpt>
      <trkpt lat="43.9096" lon="5.19809">
        <ele>300.55</ele>
        <time>2017-01-11T11:26:04Z</time>
      </trkpt>
      <trkpt lat="43.90971" lon="5.19813">
        <ele>300.07</ele>
        <time>2017-01-11T11:26:20Z</time>
      </trkpt>
      <trkpt lat="43.90979" lon="5.19816">
        <ele>301.03</ele>
        <time>2017-01-11T11:26:36Z</time>
      </trkpt>
      <trkpt lat="43.90988" lon="5.19819">
        <ele>300.07</ele>
        <time>2017-01-11T11:26:51Z</time>
      </trkpt>
      <trkpt lat="43.91" lon="5.1982">
        <ele>297.67</ele>
        <time>2017-01-11T11:27:06Z</time>
      </trkpt>
      <trkpt lat="43.91009" lon="5.19819">
        <ele>295.74</ele>
        <time>2017-01-11T11:27:19Z</time>
      </trkpt>
      <trkpt lat="43.91012" lon="5.19822">
        <ele>294.3</ele>
        <time>2017-01-11T11:27:23Z</time>
      </trkpt>
      <trkpt lat="43.91018" lon="5.19832">
        <ele>293.34</ele>
        <time>2017-01-11T11:27:36Z</time>
      </trkpt>
      <trkpt lat="43.91016" lon="5.19836">
        <ele>291.9</ele>
        <time>2017-01-11T11:27:54Z</time>
      </trkpt>
      <trkpt lat="43.91019" lon="5.19838">
        <ele>294.3</ele>
        <time>2017-01-11T11:28:09Z</time>
      </trkpt>
      <trkpt lat="43.91018" lon="5.19839">
        <ele>297.18</ele>
        <time>2017-01-11T11:28:21Z</time>
      </trkpt>
      <trkpt lat="43.91022" lon="5.19845">
        <ele>301.99</ele>
        <time>2017-01-11T11:28:35Z</time>
      </trkpt>
      <trkpt lat="43.91027" lon="5.19844">
        <ele>304.39</ele>
        <time>2017-01-11T11:28:51Z</time>
      </trkpt>
      <trkpt lat="43.9103" lon="5.19844">
        <ele>303.43</ele>
        <time>2017-01-11T11:29:07Z</time>
      </trkpt>
      <trkpt lat="43.91033" lon="5.19837">
        <ele>301.51</ele>
        <time>2017-01-11T11:29:23Z</time>
      </trkpt>
      <trkpt lat="43.91043" lon="5.1983">
        <ele>299.11</ele>
        <time>2017-01-11T11:29:34Z</time>
      </trkpt>
      <trkpt lat="43.91046" lon="5.19826">
        <ele>297.18</ele>
        <time>2017-01-11T11:29:38Z</time>
      </trkpt>
      <trkpt lat="43.9105" lon="5.19823">
        <ele>296.22</ele>
        <time>2017-01-11T11:29:43Z</time>
      </trkpt>
      <trkpt lat="43.91052" lon="5.19819">
        <ele>296.7</ele>
        <time>2017-01-11T11:29:47Z</time>
      </trkpt>
      <trkpt lat="43.91065" lon="5.19801">
        <ele>298.63</ele>
        <time>2017-01-11T11:30:04Z</time>
      </trkpt>
      <trkpt lat="43.91068" lon="5.19798">
        <ele>299.11</ele>
        <time>2017-01-11T11:30:10Z</time>
      </trkpt>
      <trkpt lat="43.9107" lon="5.19794">
        <ele>300.55</ele>
        <time>2017-01-11T11:30:14Z</time>
      </trkpt>
      <trkpt lat="43.91075" lon="5.19792">
        <ele>304.39</ele>
        <time>2017-01-11T11:30:29Z</time>
      </trkpt>
      <trkpt lat="43.91074" lon="5.19793">
        <ele>304.88</ele>
        <time>2017-01-11T11:30:31Z</time>
      </trkpt>
      <trkpt lat="43.91063" lon="5.19806">
        <ele>308.72</ele>
        <time>2017-01-11T11:30:48Z</time>
      </trkpt>
      <trkpt lat="43.91052" lon="5.1982">
        <ele>312.09</ele>
        <time>2017-01-11T11:31:03Z</time>
      </trkpt>
      <trkpt lat="43.91036" lon="5.19836">
        <ele>315.45</ele>
        <time>2017-01-11T11:31:21Z</time>
      </trkpt>
      <trkpt lat="43.91031" lon="5.19848">
        <ele>316.89</ele>
        <time>2017-01-11T11:31:35Z</time>
      </trkpt>
      <trkpt lat="43.91028" lon="5.19853">
        <ele>317.85</ele>
        <time>2017-01-11T11:31:41Z</time>
      </trkpt>
      <trkpt lat="43.91019" lon="5.19865">
        <ele>322.18</ele>
        <time>2017-01-11T11:31:53Z</time>
      </trkpt>
      <trkpt lat="43.91009" lon="5.19876">
        <ele>327.47</ele>
        <time>2017-01-11T11:32:04Z</time>
      </trkpt>
      <trkpt lat="43.90998" lon="5.1989">
        <ele>322.18</ele>
        <time>2017-01-11T11:32:19Z</time>
      </trkpt>
      <trkpt lat="43.90989" lon="5.19909">
        <ele>315.45</ele>
        <time>2017-01-11T11:32:33Z</time>
      </trkpt>
      <trkpt lat="43.90988" lon="5.19909">
        <ele>314.97</ele>
        <time>2017-01-11T11:32:34Z</time>
      </trkpt>
      <trkpt lat="43.90986" lon="5.19912">
        <ele>314.97</ele>
        <time>2017-01-11T11:32:36Z</time>
      </trkpt>
      <trkpt lat="43.90982" lon="5.19919">
        <ele>314.49</ele>
        <time>2017-01-11T11:32:51Z</time>
      </trkpt>
      <trkpt lat="43.90975" lon="5.19929">
        <ele>309.68</ele>
        <time>2017-01-11T11:33:04Z</time>
      </trkpt>
      <trkpt lat="43.90974" lon="5.1993">
        <ele>309.2</ele>
        <time>2017-01-11T11:33:05Z</time>
      </trkpt>
      <trkpt lat="43.90968" lon="5.19936">
        <ele>309.68</ele>
        <time>2017-01-11T11:33:20Z</time>
      </trkpt>
      <trkpt lat="43.90967" lon="5.19938">
        <ele>309.68</ele>
        <time>2017-01-11T11:33:22Z</time>
      </trkpt>
      <trkpt lat="43.90951" lon="5.19956">
        <ele>305.84</ele>
        <time>2017-01-11T11:33:39Z</time>
      </trkpt>
      <trkpt lat="43.90944" lon="5.19968">
        <ele>302.95</ele>
        <time>2017-01-11T11:33:49Z</time>
      </trkpt>
      <trkpt lat="43.90944" lon="5.19995">
        <ele>293.82</ele>
        <time>2017-01-11T11:34:05Z</time>
      </trkpt>
      <trkpt lat="43.90943" lon="5.20024">
        <ele>292.38</ele>
        <time>2017-01-11T11:34:24Z</time>
      </trkpt>
      <trkpt lat="43.90946" lon="5.20053">
        <ele>293.82</ele>
        <time>2017-01-11T11:34:43Z</time>
      </trkpt>
      <trkpt lat="43.90951" lon="5.20075">
        <ele>294.3</ele>
        <time>2017-01-11T11:34:58Z</time>
      </trkpt>
      <trkpt lat="43.90958" lon="5.20093">
        <ele>296.22</ele>
        <time>2017-01-11T11:35:14Z</time>
      </trkpt>
      <trkpt lat="43.90969" lon="5.20107">
        <ele>295.74</ele>
        <time>2017-01-11T11:35:30Z</time>
      </trkpt>
      <trkpt lat="43.90983" lon="5.20128">
        <ele>293.34</ele>
        <time>2017-01-11T11:35:50Z</time>
      </trkpt>
      <trkpt lat="43.90995" lon="5.20145">
        <ele>290.94</ele>
        <time>2017-01-11T11:36:06Z</time>
      </trkpt>
      <trkpt lat="43.91007" lon="5.20166">
        <ele>292.38</ele>
        <time>2017-01-11T11:36:23Z</time>
      </trkpt>
      <trkpt lat="43.91019" lon="5.20186">
        <ele>289.49</ele>
        <time>2017-01-11T11:36:40Z</time>
      </trkpt>
      <trkpt lat="43.91033" lon="5.20208">
        <ele>290.46</ele>
        <time>2017-01-11T11:37:00Z</time>
      </trkpt>
      <trkpt lat="43.91045" lon="5.20226">
        <ele>288.53</ele>
        <time>2017-01-11T11:37:16Z</time>
      </trkpt>
      <trkpt lat="43.91057" lon="5.20241">
        <ele>286.61</ele>
        <time>2017-01-11T11:37:32Z</time>
      </trkpt>
      <trkpt lat="43.91066" lon="5.20257">
        <ele>284.21</ele>
        <time>2017-01-11T11:37:47Z</time>
      </trkpt>
      <trkpt lat="43.91078" lon="5.20274">
        <ele>280.84</ele>
        <time>2017-01-11T11:38:04Z</time>
      </trkpt>
      <trkpt lat="43.9109" lon="5.2029">
        <ele>278.44</ele>
        <time>2017-01-11T11:38:22Z</time>
      </trkpt>
      <trkpt lat="43.91105" lon="5.20308">
        <ele>278.44</ele>
        <time>2017-01-11T11:38:41Z</time>
      </trkpt>
      <trkpt lat="43.91116" lon="5.20327">
        <ele>274.59</ele>
        <time>2017-01-11T11:38:58Z</time>
      </trkpt>
      <trkpt lat="43.9112" lon="5.20341">
        <ele>273.15</ele>
        <time>2017-01-11T11:39:08Z</time>
      </trkpt>
      <trkpt lat="43.91118" lon="5.20366">
        <ele>269.79</ele>
        <time>2017-01-11T11:39:27Z</time>
      </trkpt>
      <trkpt lat="43.91111" lon="5.20384">
        <ele>265.94</ele>
        <time>2017-01-11T11:39:43Z</time>
      </trkpt>
      <trkpt lat="43.91106" lon="5.20401">
        <ele>262.58</ele>
        <time>2017-01-11T11:39:59Z</time>
      </trkpt>
      <trkpt lat="43.91101" lon="5.20414">
        <ele>259.21</ele>
        <time>2017-01-11T11:40:09Z</time>
      </trkpt>
      <trkpt lat="43.91095" lon="5.20435">
        <ele>256.33</ele>
        <time>2017-01-11T11:40:26Z</time>
      </trkpt>
      <trkpt lat="43.91095" lon="5.20438">
        <ele>255.37</ele>
        <time>2017-01-11T11:40:29Z</time>
      </trkpt>
      <trkpt lat="43.91092" lon="5.20464">
        <ele>255.85</ele>
        <time>2017-01-11T11:40:47Z</time>
      </trkpt>
      <trkpt lat="43.91094" lon="5.20488">
        <ele>256.81</ele>
        <time>2017-01-11T11:41:04Z</time>
      </trkpt>
      <trkpt lat="43.91095" lon="5.20502">
        <ele>257.29</ele>
        <time>2017-01-11T11:41:14Z</time>
      </trkpt>
      <trkpt lat="43.91099" lon="5.20523">
        <ele>253.93</ele>
        <time>2017-01-11T11:41:30Z</time>
      </trkpt>
      <trkpt lat="43.91096" lon="5.20547">
        <ele>251.52</ele>
        <time>2017-01-11T11:41:45Z</time>
      </trkpt>
      <trkpt lat="43.91093" lon="5.2056">
        <ele>249.6</ele>
        <time>2017-01-11T11:41:53Z</time>
      </trkpt>
      <trkpt lat="43.91094" lon="5.20576">
        <ele>246.72</ele>
        <time>2017-01-11T11:42:05Z</time>
      </trkpt>
      <trkpt lat="43.91091" lon="5.20594">
        <ele>246.23</ele>
        <time>2017-01-11T11:42:18Z</time>
      </trkpt>
      <trkpt lat="43.91083" lon="5.20619">
        <ele>247.68</ele>
        <time>2017-01-11T11:42:36Z</time>
      </trkpt>
      <trkpt lat="43.9108" lon="5.20631">
        <ele>246.23</ele>
        <time>2017-01-11T11:42:45Z</time>
      </trkpt>
      <trkpt lat="43.91074" lon="5.20659">
        <ele>242.87</ele>
        <time>2017-01-11T11:43:03Z</time>
      </trkpt>
      <trkpt lat="43.91074" lon="5.20664">
        <ele>241.91</ele>
        <time>2017-01-11T11:43:07Z</time>
      </trkpt>
      <trkpt lat="43.91073" lon="5.2067">
        <ele>241.43</ele>
        <time>2017-01-11T11:43:11Z</time>
      </trkpt>
      <trkpt lat="43.9107" lon="5.20681">
        <ele>240.95</ele>
        <time>2017-01-11T11:43:19Z</time>
      </trkpt>
      <trkpt lat="43.91068" lon="5.20689">
        <ele>239.51</ele>
        <time>2017-01-11T11:43:32Z</time>
      </trkpt>
      <trkpt lat="43.9107" lon="5.20708">
        <ele>237.58</ele>
        <time>2017-01-11T11:43:46Z</time>
      </trkpt>
      <trkpt lat="43.91068" lon="5.20733">
        <ele>234.22</ele>
        <time>2017-01-11T11:44:03Z</time>
      </trkpt>
      <trkpt lat="43.91067" lon="5.20751">
        <ele>234.7</ele>
        <time>2017-01-11T11:44:18Z</time>
      </trkpt>
      <trkpt lat="43.91075" lon="5.20766">
        <ele>237.58</ele>
        <time>2017-01-11T11:44:34Z</time>
      </trkpt>
      <trkpt lat="43.91081" lon="5.20776">
        <ele>237.1</ele>
        <time>2017-01-11T11:44:49Z</time>
      </trkpt>
      <trkpt lat="43.91085" lon="5.20782">
        <ele>238.54</ele>
        <time>2017-01-11T11:45:06Z</time>
      </trkpt>
      <trkpt lat="43.9109" lon="5.20785">
        <ele>237.58</ele>
        <time>2017-01-11T11:45:19Z</time>
      </trkpt>
      <trkpt lat="43.91094" lon="5.20787">
        <ele>238.06</ele>
        <time>2017-01-11T11:45:32Z</time>
      </trkpt>
      <trkpt lat="43.91098" lon="5.20791">
        <ele>234.7</ele>
        <time>2017-01-11T11:45:49Z</time>
      </trkpt>
      <trkpt lat="43.91098" lon="5.20793">
        <ele>234.22</ele>
        <time>2017-01-11T11:46:01Z</time>
      </trkpt>
      <trkpt lat="43.91099" lon="5.20792">
        <ele>233.26</ele>
        <time>2017-01-11T11:46:12Z</time>
      </trkpt>
      <trkpt lat="43.91099" lon="5.20792">
        <ele>232.78</ele>
        <time>2017-01-11T11:46:16Z</time>
      </trkpt>
      <trkpt lat="43.91101" lon="5.2079">
        <ele>232.78</ele>
        <time>2017-01-11T11:46:30Z</time>
      </trkpt>
      <trkpt lat="43.91098" lon="5.2079">
        <ele>234.22</ele>
        <time>2017-01-11T11:47:07Z</time>
      </trkpt>
      <trkpt lat="43.91098" lon="5.2079">
        <ele>232.78</ele>
        <time>2017-01-11T11:47:47Z</time>
      </trkpt>
      <trkpt lat="43.91098" lon="5.20791">
        <ele>232.3</ele>
        <time>2017-01-11T11:48:00Z</time>
      </trkpt>
      <trkpt lat="43.91098" lon="5.20791">
        <ele>231.33</ele>
        <time>2017-01-11T11:48:08Z</time>
      </trkpt>
      <trkpt lat="43.91064" lon="5.20761">
        <ele>230.85</ele>
        <time>2017-01-11T12:50:36Z</time>
      </trkpt>
      <trkpt lat="43.91065" lon="5.20763">
        <ele>231.33</ele>
        <time>2017-01-11T12:50:37Z</time>
      </trkpt>
      <trkpt lat="43.91063" lon="5.20788">
        <ele>234.7</ele>
        <time>2017-01-11T12:50:57Z</time>
      </trkpt>
      <trkpt lat="43.91061" lon="5.20812">
        <ele>232.3</ele>
        <time>2017-01-11T12:51:15Z</time>
      </trkpt>
      <trkpt lat="43.91058" lon="5.20839">
        <ele>226.05</ele>
        <time>2017-01-11T12:51:34Z</time>
      </trkpt>
      <trkpt lat="43.91056" lon="5.2086">
        <ele>224.12</ele>
        <time>2017-01-11T12:51:52Z</time>
      </trkpt>
      <trkpt lat="43.91054" lon="5.2088">
        <ele>221.72</ele>
        <time>2017-01-11T12:52:09Z</time>
      </trkpt>
      <trkpt lat="43.9105" lon="5.20901">
        <ele>220.28</ele>
        <time>2017-01-11T12:52:26Z</time>
      </trkpt>
      <trkpt lat="43.9105" lon="5.20906">
        <ele>220.28</ele>
        <time>2017-01-11T12:52:30Z</time>
      </trkpt>
      <trkpt lat="43.91053" lon="5.20912">
        <ele>220.28</ele>
        <time>2017-01-11T12:52:35Z</time>
      </trkpt>
      <trkpt lat="43.9106" lon="5.20919">
        <ele>218.84</ele>
        <time>2017-01-11T12:52:44Z</time>
      </trkpt>
      <trkpt lat="43.9107" lon="5.20927">
        <ele>218.84</ele>
        <time>2017-01-11T12:52:56Z</time>
      </trkpt>
      <trkpt lat="43.91087" lon="5.20927">
        <ele>216.91</ele>
        <time>2017-01-11T12:53:13Z</time>
      </trkpt>
      <trkpt lat="43.91094" lon="5.20935">
        <ele>216.43</ele>
        <time>2017-01-11T12:53:25Z</time>
      </trkpt>
      <trkpt lat="43.91073" lon="5.20937">
        <ele>215.47</ele>
        <time>2017-01-11T12:53:43Z</time>
      </trkpt>
      <trkpt lat="43.91063" lon="5.20934">
        <ele>215.95</ele>
        <time>2017-01-11T12:53:57Z</time>
      </trkpt>
      <trkpt lat="43.91056" lon="5.2094">
        <ele>217.4</ele>
        <time>2017-01-11T12:54:12Z</time>
      </trkpt>
      <trkpt lat="43.91047" lon="5.20947">
        <ele>216.43</ele>
        <time>2017-01-11T12:54:27Z</time>
      </trkpt>
      <trkpt lat="43.91035" lon="5.20951">
        <ele>215.47</ele>
        <time>2017-01-11T12:54:44Z</time>
      </trkpt>
      <trkpt lat="43.91031" lon="5.2095">
        <ele>214.51</ele>
        <time>2017-01-11T12:54:58Z</time>
      </trkpt>
      <trkpt lat="43.91019" lon="5.20955">
        <ele>214.99</ele>
        <time>2017-01-11T12:55:14Z</time>
      </trkpt>
      <trkpt lat="43.9101" lon="5.20956">
        <ele>214.99</ele>
        <time>2017-01-11T12:55:31Z</time>
      </trkpt>
      <trkpt lat="43.90998" lon="5.20957">
        <ele>213.55</ele>
        <time>2017-01-11T12:55:50Z</time>
      </trkpt>
      <trkpt lat="43.9099" lon="5.20958">
        <ele>213.55</ele>
        <time>2017-01-11T12:56:10Z</time>
      </trkpt>
      <trkpt lat="43.90979" lon="5.20961">
        <ele>210.67</ele>
        <time>2017-01-11T12:56:28Z</time>
      </trkpt>
      <trkpt lat="43.90969" lon="5.20961">
        <ele>208.74</ele>
        <time>2017-01-11T12:56:44Z</time>
      </trkpt>
      <trkpt lat="43.90957" lon="5.20959">
        <ele>207.78</ele>
        <time>2017-01-11T12:57:02Z</time>
      </trkpt>
      <trkpt lat="43.90953" lon="5.2096">
        <ele>204.9</ele>
        <time>2017-01-11T12:57:15Z</time>
      </trkpt>
      <trkpt lat="43.90954" lon="5.20959">
        <ele>203.94</ele>
        <time>2017-01-11T12:57:33Z</time>
      </trkpt>
      <trkpt lat="43.90953" lon="5.20959">
        <ele>205.38</ele>
        <time>2017-01-11T12:57:58Z</time>
      </trkpt>
      <trkpt lat="43.90945" lon="5.20958">
        <ele>204.42</ele>
        <time>2017-01-11T12:58:17Z</time>
      </trkpt>
      <trkpt lat="43.90956" lon="5.20956">
        <ele>201.53</ele>
        <time>2017-01-11T12:58:35Z</time>
      </trkpt>
      <trkpt lat="43.90953" lon="5.20958">
        <ele>202.49</ele>
        <time>2017-01-11T12:58:55Z</time>
      </trkpt>
      <trkpt lat="43.90938" lon="5.2096">
        <ele>202.49</ele>
        <time>2017-01-11T12:59:09Z</time>
      </trkpt>
      <trkpt lat="43.90921" lon="5.20952">
        <ele>202.49</ele>
        <time>2017-01-11T12:59:25Z</time>
      </trkpt>
      <trkpt lat="43.90909" lon="5.20931">
        <ele>201.53</ele>
        <time>2017-01-11T12:59:44Z</time>
      </trkpt>
      <trkpt lat="43.909" lon="5.2092">
        <ele>199.13</ele>
        <time>2017-01-11T13:00:02Z</time>
      </trkpt>
      <trkpt lat="43.90894" lon="5.20924">
        <ele>198.65</ele>
        <time>2017-01-11T13:00:17Z</time>
      </trkpt>
      <trkpt lat="43.90886" lon="5.20943">
        <ele>201.05</ele>
        <time>2017-01-11T13:00:34Z</time>
      </trkpt>
      <trkpt lat="43.90875" lon="5.20954">
        <ele>201.05</ele>
        <time>2017-01-11T13:00:50Z</time>
      </trkpt>
      <trkpt lat="43.90861" lon="5.20963">
        <ele>200.57</ele>
        <time>2017-01-11T13:01:06Z</time>
      </trkpt>
      <trkpt lat="43.9084" lon="5.20976">
        <ele>199.61</ele>
        <time>2017-01-11T13:01:29Z</time>
      </trkpt>
      <trkpt lat="43.90834" lon="5.20981">
        <ele>200.57</ele>
        <time>2017-01-11T13:01:44Z</time>
      </trkpt>
      <trkpt lat="43.90819" lon="5.20991">
        <ele>199.61</ele>
        <time>2017-01-11T13:02:02Z</time>
      </trkpt>
      <trkpt lat="43.90805" lon="5.21">
        <ele>199.61</ele>
        <time>2017-01-11T13:02:18Z</time>
      </trkpt>
      <trkpt lat="43.90783" lon="5.21016">
        <ele>198.65</ele>
        <time>2017-01-11T13:02:41Z</time>
      </trkpt>
      <trkpt lat="43.90765" lon="5.21032">
        <ele>197.21</ele>
        <time>2017-01-11T13:03:00Z</time>
      </trkpt>
      <trkpt lat="43.90751" lon="5.21043">
        <ele>196.25</ele>
        <time>2017-01-11T13:03:17Z</time>
      </trkpt>
      <trkpt lat="43.90744" lon="5.21049">
        <ele>196.25</ele>
        <time>2017-01-11T13:03:31Z</time>
      </trkpt>
      <trkpt lat="43.90743" lon="5.2105">
        <ele>196.25</ele>
        <time>2017-01-11T13:03:32Z</time>
      </trkpt>
      <trkpt lat="43.90722" lon="5.21065">
        <ele>195.77</ele>
        <time>2017-01-11T13:03:53Z</time>
      </trkpt>
      <trkpt lat="43.90701" lon="5.21081">
        <ele>194.32</ele>
        <time>2017-01-11T13:04:14Z</time>
      </trkpt>
      <trkpt lat="43.90684" lon="5.21076">
        <ele>193.84</ele>
        <time>2017-01-11T13:04:35Z</time>
      </trkpt>
      <trkpt lat="43.9068" lon="5.21074">
        <ele>191.44</ele>
        <time>2017-01-11T13:04:57Z</time>
      </trkpt>
      <trkpt lat="43.90681" lon="5.21074">
        <ele>190</ele>
        <time>2017-01-11T13:05:14Z</time>
      </trkpt>
      <trkpt lat="43.90678" lon="5.21079">
        <ele>189.52</ele>
        <time>2017-01-11T13:05:30Z</time>
      </trkpt>
      <trkpt lat="43.90677" lon="5.21081">
        <ele>189.52</ele>
        <time>2017-01-11T13:05:45Z</time>
      </trkpt>
      <trkpt lat="43.90682" lon="5.21076">
        <ele>189.52</ele>
        <time>2017-01-11T13:06:01Z</time>
      </trkpt>
      <trkpt lat="43.90669" lon="5.21083">
        <ele>189.04</ele>
        <time>2017-01-11T13:06:17Z</time>
      </trkpt>
      <trkpt lat="43.90644" lon="5.21085">
        <ele>187.59</ele>
        <time>2017-01-11T13:06:38Z</time>
      </trkpt>
      <trkpt lat="43.90622" lon="5.21059">
        <ele>190</ele>
        <time>2017-01-11T13:07:00Z</time>
      </trkpt>
      <trkpt lat="43.90605" lon="5.21036">
        <ele>192.4</ele>
        <time>2017-01-11T13:07:21Z</time>
      </trkpt>
      <trkpt lat="43.90586" lon="5.21015">
        <ele>190.96</ele>
        <time>2017-01-11T13:07:41Z</time>
      </trkpt>
      <trkpt lat="43.90589" lon="5.20989">
        <ele>190</ele>
        <time>2017-01-11T13:08:00Z</time>
      </trkpt>
      <trkpt lat="43.90597" lon="5.20956">
        <ele>192.88</ele>
        <time>2017-01-11T13:08:21Z</time>
      </trkpt>
      <trkpt lat="43.90607" lon="5.20927">
        <ele>192.4</ele>
        <time>2017-01-11T13:08:41Z</time>
      </trkpt>
      <trkpt lat="43.90618" lon="5.20898">
        <ele>194.8</ele>
        <time>2017-01-11T13:09:02Z</time>
      </trkpt>
      <trkpt lat="43.90618" lon="5.20895">
        <ele>194.8</ele>
        <time>2017-01-11T13:09:04Z</time>
      </trkpt>
      <trkpt lat="43.90627" lon="5.20871">
        <ele>196.25</ele>
        <time>2017-01-11T13:09:21Z</time>
      </trkpt>
      <trkpt lat="43.90634" lon="5.20848">
        <ele>198.65</ele>
        <time>2017-01-11T13:09:39Z</time>
      </trkpt>
      <trkpt lat="43.90642" lon="5.20824">
        <ele>198.65</ele>
        <time>2017-01-11T13:09:56Z</time>
      </trkpt>
      <trkpt lat="43.90648" lon="5.20801">
        <ele>200.57</ele>
        <time>2017-01-11T13:10:15Z</time>
      </trkpt>
      <trkpt lat="43.90656" lon="5.20776">
        <ele>202.49</ele>
        <time>2017-01-11T13:10:35Z</time>
      </trkpt>
      <trkpt lat="43.9066" lon="5.20753">
        <ele>202.98</ele>
        <time>2017-01-11T13:10:54Z</time>
      </trkpt>
      <trkpt lat="43.90661" lon="5.20728">
        <ele>203.94</ele>
        <time>2017-01-11T13:11:13Z</time>
      </trkpt>
      <trkpt lat="43.9066" lon="5.20699">
        <ele>206.34</ele>
        <time>2017-01-11T13:11:33Z</time>
      </trkpt>
      <trkpt lat="43.9066" lon="5.20687">
        <ele>208.74</ele>
        <time>2017-01-11T13:11:41Z</time>
      </trkpt>
      <trkpt lat="43.90653" lon="5.20664">
        <ele>211.63</ele>
        <time>2017-01-11T13:11:59Z</time>
      </trkpt>
      <trkpt lat="43.90646" lon="5.20644">
        <ele>212.11</ele>
        <time>2017-01-11T13:12:16Z</time>
      </trkpt>
      <trkpt lat="43.90641" lon="5.20622">
        <ele>211.15</ele>
        <time>2017-01-11T13:12:35Z</time>
      </trkpt>
      <trkpt lat="43.90633" lon="5.20604">
        <ele>213.07</ele>
        <time>2017-01-11T13:12:51Z</time>
      </trkpt>
      <trkpt lat="43.90628" lon="5.20584">
        <ele>214.51</ele>
        <time>2017-01-11T13:13:10Z</time>
      </trkpt>
      <trkpt lat="43.90629" lon="5.2058">
        <ele>214.51</ele>
        <time>2017-01-11T13:13:37Z</time>
      </trkpt>
      <trkpt lat="43.90613" lon="5.20579">
        <ele>214.99</ele>
        <time>2017-01-11T13:13:57Z</time>
      </trkpt>
      <trkpt lat="43.90597" lon="5.20584">
        <ele>216.91</ele>
        <time>2017-01-11T13:14:16Z</time>
      </trkpt>
      <trkpt lat="43.90589" lon="5.20578">
        <ele>219.8</ele>
        <time>2017-01-11T13:14:35Z</time>
      </trkpt>
      <trkpt lat="43.90579" lon="5.20572">
        <ele>218.84</ele>
        <time>2017-01-11T13:14:55Z</time>
      </trkpt>
      <trkpt lat="43.90561" lon="5.20566">
        <ele>217.88</ele>
        <time>2017-01-11T13:15:13Z</time>
      </trkpt>
      <trkpt lat="43.90545" lon="5.20557">
        <ele>218.36</ele>
        <time>2017-01-11T13:15:31Z</time>
      </trkpt>
      <trkpt lat="43.90529" lon="5.20549">
        <ele>216.43</ele>
        <time>2017-01-11T13:15:49Z</time>
      </trkpt>
      <trkpt lat="43.90512" lon="5.20536">
        <ele>218.84</ele>
        <time>2017-01-11T13:16:07Z</time>
      </trkpt>
      <trkpt lat="43.90501" lon="5.20515">
        <ele>219.32</ele>
        <time>2017-01-11T13:16:25Z</time>
      </trkpt>
      <trkpt lat="43.90498" lon="5.20503">
        <ele>218.84</ele>
        <time>2017-01-11T13:16:33Z</time>
      </trkpt>
      <trkpt lat="43.90491" lon="5.20479">
        <ele>218.36</ele>
        <time>2017-01-11T13:16:49Z</time>
      </trkpt>
      <trkpt lat="43.90488" lon="5.2048">
        <ele>217.4</ele>
        <time>2017-01-11T13:16:53Z</time>
      </trkpt>
      <trkpt lat="43.90481" lon="5.20511">
        <ele>216.91</ele>
        <time>2017-01-11T13:17:13Z</time>
      </trkpt>
      <trkpt lat="43.90473" lon="5.20544">
        <ele>216.91</ele>
        <time>2017-01-11T13:17:35Z</time>
      </trkpt>
      <trkpt lat="43.9046" lon="5.20579">
        <ele>215.47</ele>
        <time>2017-01-11T13:17:59Z</time>
      </trkpt>
      <trkpt lat="43.90445" lon="5.20603">
        <ele>215.47</ele>
        <time>2017-01-11T13:18:17Z</time>
      </trkpt>
      <trkpt lat="43.90428" lon="5.20628">
        <ele>212.59</ele>
        <time>2017-01-11T13:18:39Z</time>
      </trkpt>
      <trkpt lat="43.90409" lon="5.20654">
        <ele>212.11</ele>
        <time>2017-01-11T13:19:01Z</time>
      </trkpt>
      <trkpt lat="43.9039" lon="5.20691">
        <ele>213.55</ele>
        <time>2017-01-11T13:19:27Z</time>
      </trkpt>
      <trkpt lat="43.90374" lon="5.20703">
        <ele>209.7</ele>
        <time>2017-01-11T13:19:44Z</time>
      </trkpt>
      <trkpt lat="43.90352" lon="5.20706">
        <ele>207.78</ele>
        <time>2017-01-11T13:20:02Z</time>
      </trkpt>
      <trkpt lat="43.90321" lon="5.20711">
        <ele>208.74</ele>
        <time>2017-01-11T13:20:27Z</time>
      </trkpt>
      <trkpt lat="43.90295" lon="5.20715">
        <ele>208.26</ele>
        <time>2017-01-11T13:20:48Z</time>
      </trkpt>
      <trkpt lat="43.90273" lon="5.20719">
        <ele>206.82</ele>
        <time>2017-01-11T13:21:05Z</time>
      </trkpt>
      <trkpt lat="43.90244" lon="5.20724">
        <ele>203.46</ele>
        <time>2017-01-11T13:21:29Z</time>
      </trkpt>
      <trkpt lat="43.90216" lon="5.20729">
        <ele>199.61</ele>
        <time>2017-01-11T13:21:52Z</time>
      </trkpt>
      <trkpt lat="43.90188" lon="5.20734">
        <ele>199.13</ele>
        <time>2017-01-11T13:22:15Z</time>
      </trkpt>
      <trkpt lat="43.90178" lon="5.20739">
        <ele>202.01</ele>
        <time>2017-01-11T13:22:33Z</time>
      </trkpt>
      <trkpt lat="43.90171" lon="5.20743">
        <ele>203.46</ele>
        <time>2017-01-11T13:22:48Z</time>
      </trkpt>
      <trkpt lat="43.90155" lon="5.20745">
        <ele>202.98</ele>
        <time>2017-01-11T13:23:06Z</time>
      </trkpt>
      <trkpt lat="43.90142" lon="5.20744">
        <ele>204.42</ele>
        <time>2017-01-11T13:23:23Z</time>
      </trkpt>
      <trkpt lat="43.90127" lon="5.20745">
        <ele>202.01</ele>
        <time>2017-01-11T13:23:37Z</time>
      </trkpt>
      <trkpt lat="43.90104" lon="5.2074">
        <ele>201.53</ele>
        <time>2017-01-11T13:23:57Z</time>
      </trkpt>
      <trkpt lat="43.9008" lon="5.20738">
        <ele>201.53</ele>
        <time>2017-01-11T13:24:18Z</time>
      </trkpt>
      <trkpt lat="43.90072" lon="5.20733">
        <ele>201.05</ele>
        <time>2017-01-11T13:24:36Z</time>
      </trkpt>
      <trkpt lat="43.90063" lon="5.20729">
        <ele>201.05</ele>
        <time>2017-01-11T13:24:55Z</time>
      </trkpt>
      <trkpt lat="43.90052" lon="5.20736">
        <ele>200.09</ele>
        <time>2017-01-11T13:25:12Z</time>
      </trkpt>
      <trkpt lat="43.90033" lon="5.20745">
        <ele>201.05</ele>
        <time>2017-01-11T13:25:31Z</time>
      </trkpt>
      <trkpt lat="43.90016" lon="5.2075">
        <ele>203.46</ele>
        <time>2017-01-11T13:25:49Z</time>
      </trkpt>
      <trkpt lat="43.89998" lon="5.20749">
        <ele>205.86</ele>
        <time>2017-01-11T13:26:10Z</time>
      </trkpt>
      <trkpt lat="43.89982" lon="5.20754">
        <ele>208.26</ele>
        <time>2017-01-11T13:26:30Z</time>
      </trkpt>
      <trkpt lat="43.89968" lon="5.20769">
        <ele>210.67</ele>
        <time>2017-01-11T13:26:50Z</time>
      </trkpt>
      <trkpt lat="43.89956" lon="5.20783">
        <ele>212.11</ele>
        <time>2017-01-11T13:27:09Z</time>
      </trkpt>
      <trkpt lat="43.89944" lon="5.20796">
        <ele>213.07</ele>
        <time>2017-01-11T13:27:28Z</time>
      </trkpt>
      <trkpt lat="43.89926" lon="5.20811">
        <ele>215.47</ele>
        <time>2017-01-11T13:27:51Z</time>
      </trkpt>
      <trkpt lat="43.8991" lon="5.20811">
        <ele>219.8</ele>
        <time>2017-01-11T13:28:09Z</time>
      </trkpt>
      <trkpt lat="43.89895" lon="5.20803">
        <ele>225.57</ele>
        <time>2017-01-11T13:28:26Z</time>
      </trkpt>
      <trkpt lat="43.89884" lon="5.20795">
        <ele>227.97</ele>
        <time>2017-01-11T13:28:43Z</time>
      </trkpt>
      <trkpt lat="43.89871" lon="5.20788">
        <ele>232.78</ele>
        <time>2017-01-11T13:29:02Z</time>
      </trkpt>
      <trkpt lat="43.89856" lon="5.20783">
        <ele>235.18</ele>
        <time>2017-01-11T13:29:23Z</time>
      </trkpt>
      <trkpt lat="43.89843" lon="5.20778">
        <ele>236.62</ele>
        <time>2017-01-11T13:29:41Z</time>
      </trkpt>
      <trkpt lat="43.89843" lon="5.20767">
        <ele>236.14</ele>
        <time>2017-01-11T13:29:51Z</time>
      </trkpt>
      <trkpt lat="43.89844" lon="5.20763">
        <ele>236.14</ele>
        <time>2017-01-11T13:29:54Z</time>
      </trkpt>
      <trkpt lat="43.89845" lon="5.20759">
        <ele>236.14</ele>
        <time>2017-01-11T13:29:57Z</time>
      </trkpt>
      <trkpt lat="43.89848" lon="5.20742">
        <ele>237.1</ele>
        <time>2017-01-11T13:30:14Z</time>
      </trkpt>
      <trkpt lat="43.89847" lon="5.20735">
        <ele>239.99</ele>
        <time>2017-01-11T13:30:32Z</time>
      </trkpt>
      <trkpt lat="43.89844" lon="5.20724">
        <ele>238.54</ele>
        <time>2017-01-11T13:30:48Z</time>
      </trkpt>
      <trkpt lat="43.8984" lon="5.20717">
        <ele>236.62</ele>
        <time>2017-01-11T13:31:02Z</time>
      </trkpt>
      <trkpt lat="43.89839" lon="5.20721">
        <ele>234.7</ele>
        <time>2017-01-11T13:31:18Z</time>
      </trkpt>
      <trkpt lat="43.89838" lon="5.2072">
        <ele>234.22</ele>
        <time>2017-01-11T13:31:31Z</time>
      </trkpt>
      <trkpt lat="43.89837" lon="5.2072">
        <ele>235.18</ele>
        <time>2017-01-11T13:31:48Z</time>
      </trkpt>
      <trkpt lat="43.89836" lon="5.20721">
        <ele>235.18</ele>
        <time>2017-01-11T13:32:10Z</time>
      </trkpt>
      <trkpt lat="43.89834" lon="5.2072">
        <ele>237.1</ele>
        <time>2017-01-11T13:32:38Z</time>
      </trkpt>
      <trkpt lat="43.89832" lon="5.20718">
        <ele>237.1</ele>
        <time>2017-01-11T13:33:19Z</time>
      </trkpt>
      <trkpt lat="43.89832" lon="5.20716">
        <ele>237.58</ele>
        <time>2017-01-11T13:33:55Z</time>
      </trkpt>
      <trkpt lat="43.89834" lon="5.20716">
        <ele>235.18</ele>
        <time>2017-01-11T13:34:34Z</time>
      </trkpt>
      <trkpt lat="43.89837" lon="5.20719">
        <ele>237.58</ele>
        <time>2017-01-11T13:34:58Z</time>
      </trkpt>
      <trkpt lat="43.8984" lon="5.20719">
        <ele>239.51</ele>
        <time>2017-01-11T13:35:25Z</time>
      </trkpt>
      <trkpt lat="43.89842" lon="5.20719">
        <ele>237.58</ele>
        <time>2017-01-11T13:35:44Z</time>
      </trkpt>
      <trkpt lat="43.89839" lon="5.20718">
        <ele>237.1</ele>
        <time>2017-01-11T13:35:55Z</time>
      </trkpt>
      <trkpt lat="43.89843" lon="5.20716">
        <ele>241.91</ele>
        <time>2017-01-11T13:36:11Z</time>
      </trkpt>
      <trkpt lat="43.89847" lon="5.20721">
        <ele>245.27</ele>
        <time>2017-01-11T13:36:24Z</time>
      </trkpt>
      <trkpt lat="43.89849" lon="5.20733">
        <ele>246.23</ele>
        <time>2017-01-11T13:36:38Z</time>
      </trkpt>
      <trkpt lat="43.89846" lon="5.2075">
        <ele>245.75</ele>
        <time>2017-01-11T13:36:50Z</time>
      </trkpt>
      <trkpt lat="43.89844" lon="5.20754">
        <ele>245.27</ele>
        <time>2017-01-11T13:36:54Z</time>
      </trkpt>
      <trkpt lat="43.8984" lon="5.20775">
        <ele>241.91</ele>
        <time>2017-01-11T13:37:12Z</time>
      </trkpt>
      <trkpt lat="43.8982" lon="5.20777">
        <ele>242.39</ele>
        <time>2017-01-11T13:37:30Z</time>
      </trkpt>
      <trkpt lat="43.89802" lon="5.2078">
        <ele>241.43</ele>
        <time>2017-01-11T13:37:48Z</time>
      </trkpt>
      <trkpt lat="43.89782" lon="5.20785">
        <ele>242.87</ele>
        <time>2017-01-11T13:38:07Z</time>
      </trkpt>
      <trkpt lat="43.89776" lon="5.20786">
        <ele>243.35</ele>
        <time>2017-01-11T13:38:13Z</time>
      </trkpt>
      <trkpt lat="43.89762" lon="5.20797">
        <ele>243.83</ele>
        <time>2017-01-11T13:38:29Z</time>
      </trkpt>
      <trkpt lat="43.89752" lon="5.20817">
        <ele>243.35</ele>
        <time>2017-01-11T13:38:46Z</time>
      </trkpt>
      <trkpt lat="43.89751" lon="5.20822">
        <ele>243.35</ele>
        <time>2017-01-11T13:38:50Z</time>
      </trkpt>
      <trkpt lat="43.89739" lon="5.20832">
        <ele>243.35</ele>
        <time>2017-01-11T13:39:05Z</time>
      </trkpt>
      <trkpt lat="43.8973" lon="5.20841">
        <ele>245.27</ele>
        <time>2017-01-11T13:39:19Z</time>
      </trkpt>
      <trkpt lat="43.89726" lon="5.20846">
        <ele>245.75</ele>
        <time>2017-01-11T13:39:25Z</time>
      </trkpt>
      <trkpt lat="43.89726" lon="5.20863">
        <ele>250.08</ele>
        <time>2017-01-11T13:39:40Z</time>
      </trkpt>
      <trkpt lat="43.89726" lon="5.20884">
        <ele>252</ele>
        <time>2017-01-11T13:39:55Z</time>
      </trkpt>
      <trkpt lat="43.8972" lon="5.20902">
        <ele>251.04</ele>
        <time>2017-01-11T13:40:10Z</time>
      </trkpt>
      <trkpt lat="43.89715" lon="5.20918">
        <ele>251.04</ele>
        <time>2017-01-11T13:40:25Z</time>
      </trkpt>
      <trkpt lat="43.89711" lon="5.2093">
        <ele>251.52</ele>
        <time>2017-01-11T13:40:41Z</time>
      </trkpt>
      <trkpt lat="43.89706" lon="5.20936">
        <ele>252</ele>
        <time>2017-01-11T13:40:56Z</time>
      </trkpt>
      <trkpt lat="43.89708" lon="5.20947">
        <ele>253.44</ele>
        <time>2017-01-11T13:41:10Z</time>
      </trkpt>
      <trkpt lat="43.8971" lon="5.2095">
        <ele>253.93</ele>
        <time>2017-01-11T13:41:13Z</time>
      </trkpt>
      <trkpt lat="43.89713" lon="5.20959">
        <ele>253.93</ele>
        <time>2017-01-11T13:41:24Z</time>
      </trkpt>
      <trkpt lat="43.89714" lon="5.20974">
        <ele>256.81</ele>
        <time>2017-01-11T13:41:40Z</time>
      </trkpt>
      <trkpt lat="43.89716" lon="5.20989">
        <ele>258.73</ele>
        <time>2017-01-11T13:41:54Z</time>
      </trkpt>
      <trkpt lat="43.89719" lon="5.21004">
        <ele>260.65</ele>
        <time>2017-01-11T13:42:07Z</time>
      </trkpt>
      <trkpt lat="43.89712" lon="5.21022">
        <ele>262.1</ele>
        <time>2017-01-11T13:42:23Z</time>
      </trkpt>
      <trkpt lat="43.89703" lon="5.21034">
        <ele>262.58</ele>
        <time>2017-01-11T13:42:37Z</time>
      </trkpt>
      <trkpt lat="43.89695" lon="5.21036">
        <ele>261.62</ele>
        <time>2017-01-11T13:42:49Z</time>
      </trkpt>
      <trkpt lat="43.89698" lon="5.21027">
        <ele>265.94</ele>
        <time>2017-01-11T13:43:01Z</time>
      </trkpt>
      <trkpt lat="43.89696" lon="5.21016">
        <ele>274.59</ele>
        <time>2017-01-11T13:43:14Z</time>
      </trkpt>
      <trkpt lat="43.89695" lon="5.21012">
        <ele>276.52</ele>
        <time>2017-01-11T13:43:19Z</time>
      </trkpt>
      <trkpt lat="43.89688" lon="5.21004">
        <ele>277</ele>
        <time>2017-01-11T13:43:35Z</time>
      </trkpt>
      <trkpt lat="43.8969" lon="5.21007">
        <ele>274.59</ele>
        <time>2017-01-11T13:43:48Z</time>
      </trkpt>
      <trkpt lat="43.89684" lon="5.21017">
        <ele>275.56</ele>
        <time>2017-01-11T13:44:01Z</time>
      </trkpt>
      <trkpt lat="43.89678" lon="5.21028">
        <ele>275.56</ele>
        <time>2017-01-11T13:44:15Z</time>
      </trkpt>
      <trkpt lat="43.89669" lon="5.21038">
        <ele>276.04</ele>
        <time>2017-01-11T13:44:32Z</time>
      </trkpt>
      <trkpt lat="43.89657" lon="5.21044">
        <ele>277</ele>
        <time>2017-01-11T13:44:49Z</time>
      </trkpt>
      <trkpt lat="43.89651" lon="5.21049">
        <ele>279.88</ele>
        <time>2017-01-11T13:45:03Z</time>
      </trkpt>
      <trkpt lat="43.89646" lon="5.21062">
        <ele>282.77</ele>
        <time>2017-01-11T13:45:17Z</time>
      </trkpt>
      <trkpt lat="43.89641" lon="5.21073">
        <ele>283.73</ele>
        <time>2017-01-11T13:45:30Z</time>
      </trkpt>
      <trkpt lat="43.89634" lon="5.21086">
        <ele>284.69</ele>
        <time>2017-01-11T13:45:44Z</time>
      </trkpt>
      <trkpt lat="43.89627" lon="5.21094">
        <ele>285.17</ele>
        <time>2017-01-11T13:45:57Z</time>
      </trkpt>
      <trkpt lat="43.89622" lon="5.21099">
        <ele>286.61</ele>
        <time>2017-01-11T13:46:12Z</time>
      </trkpt>
      <trkpt lat="43.89622" lon="5.21101">
        <ele>286.13</ele>
        <time>2017-01-11T13:46:15Z</time>
      </trkpt>
      <trkpt lat="43.89619" lon="5.21118">
        <ele>286.13</ele>
        <time>2017-01-11T13:46:30Z</time>
      </trkpt>
      <trkpt lat="43.89615" lon="5.21128">
        <ele>289.01</ele>
        <time>2017-01-11T13:46:40Z</time>
      </trkpt>
      <trkpt lat="43.89615" lon="5.2114">
        <ele>291.9</ele>
        <time>2017-01-11T13:46:52Z</time>
      </trkpt>
      <trkpt lat="43.89613" lon="5.21154">
        <ele>294.3</ele>
        <time>2017-01-11T13:47:06Z</time>
      </trkpt>
      <trkpt lat="43.89611" lon="5.21168">
        <ele>294.78</ele>
        <time>2017-01-11T13:47:18Z</time>
      </trkpt>
      <trkpt lat="43.89607" lon="5.21181">
        <ele>295.74</ele>
        <time>2017-01-11T13:47:31Z</time>
      </trkpt>
      <trkpt lat="43.89603" lon="5.21193">
        <ele>297.18</ele>
        <time>2017-01-11T13:47:44Z</time>
      </trkpt>
      <trkpt lat="43.89599" lon="5.21206">
        <ele>299.59</ele>
        <time>2017-01-11T13:47:58Z</time>
      </trkpt>
      <trkpt lat="43.89593" lon="5.21222">
        <ele>301.51</ele>
        <time>2017-01-11T13:48:15Z</time>
      </trkpt>
      <trkpt lat="43.89587" lon="5.21239">
        <ele>301.51</ele>
        <time>2017-01-11T13:48:30Z</time>
      </trkpt>
      <trkpt lat="43.89581" lon="5.21254">
        <ele>302.95</ele>
        <time>2017-01-11T13:48:44Z</time>
      </trkpt>
      <trkpt lat="43.89573" lon="5.21266">
        <ele>302.95</ele>
        <time>2017-01-11T13:48:58Z</time>
      </trkpt>
      <trkpt lat="43.89569" lon="5.21272">
        <ele>302.95</ele>
        <time>2017-01-11T13:49:13Z</time>
      </trkpt>
      <trkpt lat="43.89565" lon="5.2128">
        <ele>304.39</ele>
        <time>2017-01-11T13:49:26Z</time>
      </trkpt>
      <trkpt lat="43.89562" lon="5.21284">
        <ele>302.95</ele>
        <time>2017-01-11T13:49:38Z</time>
      </trkpt>
      <trkpt lat="43.89559" lon="5.21285">
        <ele>303.91</ele>
        <time>2017-01-11T13:49:54Z</time>
      </trkpt>
      <trkpt lat="43.8956" lon="5.21285">
        <ele>302.47</ele>
        <time>2017-01-11T13:50:22Z</time>
      </trkpt>
      <trkpt lat="43.89559" lon="5.21288">
        <ele>301.51</ele>
        <time>2017-01-11T13:50:47Z</time>
      </trkpt>
      <trkpt lat="43.89558" lon="5.21282">
        <ele>301.03</ele>
        <time>2017-01-11T13:51:24Z</time>
      </trkpt>
      <trkpt lat="43.89558" lon="5.21285">
        <ele>300.55</ele>
        <time>2017-01-11T13:52:09Z</time>
      </trkpt>
      <trkpt lat="43.89557" lon="5.21285">
        <ele>302.95</ele>
        <time>2017-01-11T13:52:35Z</time>
      </trkpt>
      <trkpt lat="43.89556" lon="5.21279">
        <ele>305.36</ele>
        <time>2017-01-11T13:52:55Z</time>
      </trkpt>
      <trkpt lat="43.89556" lon="5.21271">
        <ele>306.8</ele>
        <time>2017-01-11T13:53:09Z</time>
      </trkpt>
      <trkpt lat="43.89554" lon="5.21259">
        <ele>308.72</ele>
        <time>2017-01-11T13:53:24Z</time>
      </trkpt>
      <trkpt lat="43.89553" lon="5.21258">
        <ele>308.72</ele>
        <time>2017-01-11T13:53:25Z</time>
      </trkpt>
      <trkpt lat="43.89551" lon="5.21233">
        <ele>310.16</ele>
        <time>2017-01-11T13:53:44Z</time>
      </trkpt>
      <trkpt lat="43.89552" lon="5.21223">
        <ele>311.6</ele>
        <time>2017-01-11T13:53:50Z</time>
      </trkpt>
      <trkpt lat="43.89548" lon="5.21201">
        <ele>313.05</ele>
        <time>2017-01-11T13:54:07Z</time>
      </trkpt>
      <trkpt lat="43.89548" lon="5.21175">
        <ele>314.97</ele>
        <time>2017-01-11T13:54:24Z</time>
      </trkpt>
      <trkpt lat="43.89551" lon="5.21152">
        <ele>314.01</ele>
        <time>2017-01-11T13:54:40Z</time>
      </trkpt>
      <trkpt lat="43.89549" lon="5.21127">
        <ele>314.49</ele>
        <time>2017-01-11T13:54:58Z</time>
      </trkpt>
      <trkpt lat="43.89548" lon="5.21106">
        <ele>315.45</ele>
        <time>2017-01-11T13:55:13Z</time>
      </trkpt>
      <trkpt lat="43.89543" lon="5.21085">
        <ele>318.33</ele>
        <time>2017-01-11T13:55:29Z</time>
      </trkpt>
      <trkpt lat="43.89543" lon="5.21063">
        <ele>319.78</ele>
        <time>2017-01-11T13:55:45Z</time>
      </trkpt>
      <trkpt lat="43.89544" lon="5.21039">
        <ele>320.74</ele>
        <time>2017-01-11T13:56:00Z</time>
      </trkpt>
      <trkpt lat="43.89544" lon="5.21014">
        <ele>321.7</ele>
        <time>2017-01-11T13:56:17Z</time>
      </trkpt>
      <trkpt lat="43.89542" lon="5.20984">
        <ele>322.66</ele>
        <time>2017-01-11T13:56:35Z</time>
      </trkpt>
      <trkpt lat="43.89541" lon="5.20952">
        <ele>322.18</ele>
        <time>2017-01-11T13:56:56Z</time>
      </trkpt>
      <trkpt lat="43.8954" lon="5.20925">
        <ele>322.18</ele>
        <time>2017-01-11T13:57:15Z</time>
      </trkpt>
      <trkpt lat="43.89539" lon="5.20902">
        <ele>321.22</ele>
        <time>2017-01-11T13:57:31Z</time>
      </trkpt>
      <trkpt lat="43.89538" lon="5.20886">
        <ele>321.22</ele>
        <time>2017-01-11T13:57:43Z</time>
      </trkpt>
      <trkpt lat="43.89538" lon="5.20865">
        <ele>320.74</ele>
        <time>2017-01-11T13:57:58Z</time>
      </trkpt>
      <trkpt lat="43.89536" lon="5.20846">
        <ele>320.26</ele>
        <time>2017-01-11T13:58:11Z</time>
      </trkpt>
      <trkpt lat="43.89534" lon="5.20826">
        <ele>321.7</ele>
        <time>2017-01-11T13:58:24Z</time>
      </trkpt>
      <trkpt lat="43.89532" lon="5.20806">
        <ele>322.66</ele>
        <time>2017-01-11T13:58:37Z</time>
      </trkpt>
      <trkpt lat="43.89531" lon="5.20796">
        <ele>323.14</ele>
        <time>2017-01-11T13:58:44Z</time>
      </trkpt>
      <trkpt lat="43.89528" lon="5.20776">
        <ele>323.62</ele>
        <time>2017-01-11T13:58:59Z</time>
      </trkpt>
      <trkpt lat="43.89526" lon="5.20757">
        <ele>323.62</ele>
        <time>2017-01-11T13:59:12Z</time>
      </trkpt>
      <trkpt lat="43.89524" lon="5.20739">
        <ele>323.62</ele>
        <time>2017-01-11T13:59:25Z</time>
      </trkpt>
      <trkpt lat="43.89522" lon="5.2072">
        <ele>326.02</ele>
        <time>2017-01-11T13:59:40Z</time>
      </trkpt>
      <trkpt lat="43.89518" lon="5.20702">
        <ele>326.5</ele>
        <time>2017-01-11T13:59:54Z</time>
      </trkpt>
      <trkpt lat="43.89515" lon="5.20687">
        <ele>326.02</ele>
        <time>2017-01-11T14:00:04Z</time>
      </trkpt>
      <trkpt lat="43.89506" lon="5.20678">
        <ele>327.47</ele>
        <time>2017-01-11T14:00:19Z</time>
      </trkpt>
      <trkpt lat="43.89499" lon="5.20674">
        <ele>327.95</ele>
        <time>2017-01-11T14:00:34Z</time>
      </trkpt>
      <trkpt lat="43.89497" lon="5.20672">
        <ele>327.95</ele>
        <time>2017-01-11T14:00:52Z</time>
      </trkpt>
      <trkpt lat="43.89498" lon="5.20668">
        <ele>326.99</ele>
        <time>2017-01-11T14:01:07Z</time>
      </trkpt>
      <trkpt lat="43.89495" lon="5.20664">
        <ele>325.54</ele>
        <time>2017-01-11T14:01:22Z</time>
      </trkpt>
      <trkpt lat="43.89499" lon="5.20654">
        <ele>324.1</ele>
        <time>2017-01-11T14:01:36Z</time>
      </trkpt>
      <trkpt lat="43.895" lon="5.20653">
        <ele>324.1</ele>
        <time>2017-01-11T14:01:37Z</time>
      </trkpt>
      <trkpt lat="43.89514" lon="5.20645">
        <ele>324.58</ele>
        <time>2017-01-11T14:01:52Z</time>
      </trkpt>
      <trkpt lat="43.89519" lon="5.2063">
        <ele>325.06</ele>
        <time>2017-01-11T14:02:07Z</time>
      </trkpt>
      <trkpt lat="43.89519" lon="5.20627">
        <ele>325.54</ele>
        <time>2017-01-11T14:02:11Z</time>
      </trkpt>
      <trkpt lat="43.89517" lon="5.20608">
        <ele>325.54</ele>
        <time>2017-01-11T14:02:27Z</time>
      </trkpt>
      <trkpt lat="43.89519" lon="5.20599">
        <ele>324.58</ele>
        <time>2017-01-11T14:02:41Z</time>
      </trkpt>
      <trkpt lat="43.89521" lon="5.20596">
        <ele>323.62</ele>
        <time>2017-01-11T14:02:52Z</time>
      </trkpt>
      <trkpt lat="43.8952" lon="5.20587">
        <ele>324.1</ele>
        <time>2017-01-11T14:03:08Z</time>
      </trkpt>
      <trkpt lat="43.89518" lon="5.2057">
        <ele>324.1</ele>
        <time>2017-01-11T14:03:22Z</time>
      </trkpt>
      <trkpt lat="43.89522" lon="5.20565">
        <ele>324.1</ele>
        <time>2017-01-11T14:03:27Z</time>
      </trkpt>
      <trkpt lat="43.89536" lon="5.20557">
        <ele>325.06</ele>
        <time>2017-01-11T14:03:43Z</time>
      </trkpt>
      <trkpt lat="43.89542" lon="5.20548">
        <ele>325.06</ele>
        <time>2017-01-11T14:03:57Z</time>
      </trkpt>
      <trkpt lat="43.89549" lon="5.20542">
        <ele>324.58</ele>
        <time>2017-01-11T14:04:10Z</time>
      </trkpt>
      <trkpt lat="43.89553" lon="5.20544">
        <ele>324.1</ele>
        <time>2017-01-11T14:04:23Z</time>
      </trkpt>
      <trkpt lat="43.89559" lon="5.20547">
        <ele>321.7</ele>
        <time>2017-01-11T14:04:34Z</time>
      </trkpt>
      <trkpt lat="43.89559" lon="5.20547">
        <ele>321.7</ele>
        <time>2017-01-11T14:04:48Z</time>
      </trkpt>
      <trkpt lat="43.89559" lon="5.2055">
        <ele>320.26</ele>
        <time>2017-01-11T14:05:00Z</time>
      </trkpt>
      <trkpt lat="43.8956" lon="5.2055">
        <ele>319.3</ele>
        <time>2017-01-11T14:05:13Z</time>
      </trkpt>
      <trkpt lat="43.8956" lon="5.20543">
        <ele>321.22</ele>
        <time>2017-01-11T14:05:29Z</time>
      </trkpt>
      <trkpt lat="43.8956" lon="5.20535">
        <ele>321.7</ele>
        <time>2017-01-11T14:05:42Z</time>
      </trkpt>
      <trkpt lat="43.89562" lon="5.20533">
        <ele>323.14</ele>
        <time>2017-01-11T14:05:54Z</time>
      </trkpt>
      <trkpt lat="43.89562" lon="5.20532">
        <ele>323.62</ele>
        <time>2017-01-11T14:06:12Z</time>
      </trkpt>
      <trkpt lat="43.89561" lon="5.20529">
        <ele>322.66</ele>
        <time>2017-01-11T14:06:31Z</time>
      </trkpt>
      <trkpt lat="43.89564" lon="5.20526">
        <ele>324.58</ele>
        <time>2017-01-11T14:06:43Z</time>
      </trkpt>
      <trkpt lat="43.89564" lon="5.2052">
        <ele>324.1</ele>
        <time>2017-01-11T14:06:59Z</time>
      </trkpt>
      <trkpt lat="43.89565" lon="5.20515">
        <ele>323.62</ele>
        <time>2017-01-11T14:07:14Z</time>
      </trkpt>
      <trkpt lat="43.8957" lon="5.20517">
        <ele>320.74</ele>
        <time>2017-01-11T14:07:27Z</time>
      </trkpt>
      <trkpt lat="43.89569" lon="5.20519">
        <ele>322.18</ele>
        <time>2017-01-11T14:07:38Z</time>
      </trkpt>
      <trkpt lat="43.89568" lon="5.20511">
        <ele>322.66</ele>
        <time>2017-01-11T14:07:51Z</time>
      </trkpt>
      <trkpt lat="43.8957" lon="5.20509">
        <ele>321.7</ele>
        <time>2017-01-11T14:07:53Z</time>
      </trkpt>
      <trkpt lat="43.89574" lon="5.2051">
        <ele>319.78</ele>
        <time>2017-01-11T14:08:05Z</time>
      </trkpt>
      <trkpt lat="43.89576" lon="5.20504">
        <ele>320.26</ele>
        <time>2017-01-11T14:08:20Z</time>
      </trkpt>
      <trkpt lat="43.89575" lon="5.20511">
        <ele>321.7</ele>
        <time>2017-01-11T14:08:30Z</time>
      </trkpt>
      <trkpt lat="43.89576" lon="5.20517">
        <ele>320.74</ele>
        <time>2017-01-11T14:08:41Z</time>
      </trkpt>
      <trkpt lat="43.89576" lon="5.20527">
        <ele>321.7</ele>
        <time>2017-01-11T14:08:53Z</time>
      </trkpt>
      <trkpt lat="43.89572" lon="5.20534">
        <ele>320.74</ele>
        <time>2017-01-11T14:09:06Z</time>
      </trkpt>
      <trkpt lat="43.89569" lon="5.20537">
        <ele>321.7</ele>
        <time>2017-01-11T14:09:16Z</time>
      </trkpt>
      <trkpt lat="43.89568" lon="5.20543">
        <ele>322.18</ele>
        <time>2017-01-11T14:09:25Z</time>
      </trkpt>
      <trkpt lat="43.89564" lon="5.20544">
        <ele>323.14</ele>
        <time>2017-01-11T14:09:38Z</time>
      </trkpt>
      <trkpt lat="43.89564" lon="5.20548">
        <ele>323.14</ele>
        <time>2017-01-11T14:09:50Z</time>
      </trkpt>
      <trkpt lat="43.89563" lon="5.20552">
        <ele>321.7</ele>
        <time>2017-01-11T14:10:03Z</time>
      </trkpt>
      <trkpt lat="43.89562" lon="5.20554">
        <ele>323.14</ele>
        <time>2017-01-11T14:10:14Z</time>
      </trkpt>
      <trkpt lat="43.89558" lon="5.20554">
        <ele>325.06</ele>
        <time>2017-01-11T14:10:26Z</time>
      </trkpt>
      <trkpt lat="43.89551" lon="5.20551">
        <ele>326.5</ele>
        <time>2017-01-11T14:10:42Z</time>
      </trkpt>
      <trkpt lat="43.89544" lon="5.2055">
        <ele>326.5</ele>
        <time>2017-01-11T14:10:56Z</time>
      </trkpt>
      <trkpt lat="43.89543" lon="5.20553">
        <ele>326.99</ele>
        <time>2017-01-11T14:11:11Z</time>
      </trkpt>
      <trkpt lat="43.8953" lon="5.20566">
        <ele>327.47</ele>
        <time>2017-01-11T14:11:26Z</time>
      </trkpt>
      <trkpt lat="43.89525" lon="5.20575">
        <ele>328.91</ele>
        <time>2017-01-11T14:11:38Z</time>
      </trkpt>
      <trkpt lat="43.89526" lon="5.20576">
        <ele>328.91</ele>
        <time>2017-01-11T14:11:39Z</time>
      </trkpt>
      <trkpt lat="43.89526" lon="5.20583">
        <ele>329.39</ele>
        <time>2017-01-11T14:11:43Z</time>
      </trkpt>
      <trkpt lat="43.89527" lon="5.2061">
        <ele>328.43</ele>
        <time>2017-01-11T14:12:00Z</time>
      </trkpt>
      <trkpt lat="43.89528" lon="5.20632">
        <ele>330.83</ele>
        <time>2017-01-11T14:12:14Z</time>
      </trkpt>
      <trkpt lat="43.89527" lon="5.20641">
        <ele>331.31</ele>
        <time>2017-01-11T14:12:21Z</time>
      </trkpt>
      <trkpt lat="43.89511" lon="5.20655">
        <ele>332.75</ele>
        <time>2017-01-11T14:12:38Z</time>
      </trkpt>
      <trkpt lat="43.89499" lon="5.20667">
        <ele>332.75</ele>
        <time>2017-01-11T14:12:52Z</time>
      </trkpt>
      <trkpt lat="43.89497" lon="5.20668">
        <ele>332.75</ele>
        <time>2017-01-11T14:12:54Z</time>
      </trkpt>
      <trkpt lat="43.8948" lon="5.20678">
        <ele>330.83</ele>
        <time>2017-01-11T14:13:10Z</time>
      </trkpt>
      <trkpt lat="43.89464" lon="5.20688">
        <ele>330.35</ele>
        <time>2017-01-11T14:13:25Z</time>
      </trkpt>
      <trkpt lat="43.89449" lon="5.20696">
        <ele>330.35</ele>
        <time>2017-01-11T14:13:39Z</time>
      </trkpt>
      <trkpt lat="43.89433" lon="5.20706">
        <ele>328.91</ele>
        <time>2017-01-11T14:13:55Z</time>
      </trkpt>
      <trkpt lat="43.89416" lon="5.20713">
        <ele>331.31</ele>
        <time>2017-01-11T14:14:10Z</time>
      </trkpt>
      <trkpt lat="43.89398" lon="5.20711">
        <ele>328.43</ele>
        <time>2017-01-11T14:14:24Z</time>
      </trkpt>
      <trkpt lat="43.89391" lon="5.20712">
        <ele>328.91</ele>
        <time>2017-01-11T14:14:35Z</time>
      </trkpt>
      <trkpt lat="43.89388" lon="5.20719">
        <ele>329.87</ele>
        <time>2017-01-11T14:14:42Z</time>
      </trkpt>
      <trkpt lat="43.8938" lon="5.20729">
        <ele>328.43</ele>
        <time>2017-01-11T14:14:50Z</time>
      </trkpt>
      <trkpt lat="43.89367" lon="5.20744">
        <ele>328.91</ele>
        <time>2017-01-11T14:15:07Z</time>
      </trkpt>
      <trkpt lat="43.89352" lon="5.2075">
        <ele>326.5</ele>
        <time>2017-01-11T14:15:23Z</time>
      </trkpt>
      <trkpt lat="43.89345" lon="5.20768">
        <ele>327.95</ele>
        <time>2017-01-11T14:15:39Z</time>
      </trkpt>
      <trkpt lat="43.89342" lon="5.20779">
        <ele>328.91</ele>
        <time>2017-01-11T14:15:47Z</time>
      </trkpt>
      <trkpt lat="43.89333" lon="5.208">
        <ele>329.87</ele>
        <time>2017-01-11T14:16:04Z</time>
      </trkpt>
      <trkpt lat="43.89327" lon="5.20822">
        <ele>329.87</ele>
        <time>2017-01-11T14:16:20Z</time>
      </trkpt>
      <trkpt lat="43.89322" lon="5.20837">
        <ele>329.87</ele>
        <time>2017-01-11T14:16:34Z</time>
      </trkpt>
      <trkpt lat="43.89316" lon="5.20857">
        <ele>328.91</ele>
        <time>2017-01-11T14:16:49Z</time>
      </trkpt>
      <trkpt lat="43.89311" lon="5.20869">
        <ele>327.47</ele>
        <time>2017-01-11T14:16:59Z</time>
      </trkpt>
      <trkpt lat="43.89298" lon="5.20891">
        <ele>325.06</ele>
        <time>2017-01-11T14:17:17Z</time>
      </trkpt>
      <trkpt lat="43.89285" lon="5.20915">
        <ele>323.14</ele>
        <time>2017-01-11T14:17:37Z</time>
      </trkpt>
      <trkpt lat="43.89271" lon="5.20928">
        <ele>320.74</ele>
        <time>2017-01-11T14:17:55Z</time>
      </trkpt>
      <trkpt lat="43.89261" lon="5.2093">
        <ele>318.33</ele>
        <time>2017-01-11T14:18:06Z</time>
      </trkpt>
      <trkpt lat="43.8924" lon="5.20939">
        <ele>317.85</ele>
        <time>2017-01-11T14:18:25Z</time>
      </trkpt>
      <trkpt lat="43.89226" lon="5.20953">
        <ele>318.33</ele>
        <time>2017-01-11T14:18:42Z</time>
      </trkpt>
      <trkpt lat="43.89208" lon="5.20955">
        <ele>315.93</ele>
        <time>2017-01-11T14:19:01Z</time>
      </trkpt>
      <trkpt lat="43.89192" lon="5.2096">
        <ele>314.01</ele>
        <time>2017-01-11T14:19:18Z</time>
      </trkpt>
      <trkpt lat="43.89181" lon="5.20962">
        <ele>312.09</ele>
        <time>2017-01-11T14:19:31Z</time>
      </trkpt>
      <trkpt lat="43.8918" lon="5.20963">
        <ele>312.09</ele>
        <time>2017-01-11T14:19:32Z</time>
      </trkpt>
      <trkpt lat="43.89167" lon="5.20971">
        <ele>310.16</ele>
        <time>2017-01-11T14:19:47Z</time>
      </trkpt>
      <trkpt lat="43.89152" lon="5.2098">
        <ele>306.8</ele>
        <time>2017-01-11T14:20:04Z</time>
      </trkpt>
      <trkpt lat="43.89137" lon="5.20986">
        <ele>301.03</ele>
        <time>2017-01-11T14:20:21Z</time>
      </trkpt>
      <trkpt lat="43.89119" lon="5.20994">
        <ele>297.67</ele>
        <time>2017-01-11T14:20:38Z</time>
      </trkpt>
      <trkpt lat="43.89102" lon="5.21005">
        <ele>301.99</ele>
        <time>2017-01-11T14:20:54Z</time>
      </trkpt>
      <trkpt lat="43.89102" lon="5.21006">
        <ele>302.47</ele>
        <time>2017-01-11T14:20:55Z</time>
      </trkpt>
      <trkpt lat="43.89088" lon="5.21009">
        <ele>304.88</ele>
        <time>2017-01-11T14:21:10Z</time>
      </trkpt>
      <trkpt lat="43.89076" lon="5.21003">
        <ele>305.84</ele>
        <time>2017-01-11T14:21:23Z</time>
      </trkpt>
      <trkpt lat="43.8907" lon="5.21">
        <ele>306.8</ele>
        <time>2017-01-11T14:21:29Z</time>
      </trkpt>
      <trkpt lat="43.89053" lon="5.20999">
        <ele>305.84</ele>
        <time>2017-01-11T14:21:45Z</time>
      </trkpt>
      <trkpt lat="43.89034" lon="5.20993">
        <ele>303.43</ele>
        <time>2017-01-11T14:22:03Z</time>
      </trkpt>
      <trkpt lat="43.89033" lon="5.20993">
        <ele>303.43</ele>
        <time>2017-01-11T14:22:04Z</time>
      </trkpt>
      <trkpt lat="43.89023" lon="5.21006">
        <ele>302.47</ele>
        <time>2017-01-11T14:22:21Z</time>
      </trkpt>
      <trkpt lat="43.89014" lon="5.21025">
        <ele>302.47</ele>
        <time>2017-01-11T14:22:38Z</time>
      </trkpt>
      <trkpt lat="43.89006" lon="5.21033">
        <ele>302.95</ele>
        <time>2017-01-11T14:22:52Z</time>
      </trkpt>
      <trkpt lat="43.88996" lon="5.21037">
        <ele>301.99</ele>
        <time>2017-01-11T14:23:06Z</time>
      </trkpt>
      <trkpt lat="43.8898" lon="5.21046">
        <ele>301.03</ele>
        <time>2017-01-11T14:23:22Z</time>
      </trkpt>
      <trkpt lat="43.88964" lon="5.21051">
        <ele>300.07</ele>
        <time>2017-01-11T14:23:38Z</time>
      </trkpt>
      <trkpt lat="43.8895" lon="5.21057">
        <ele>298.63</ele>
        <time>2017-01-11T14:23:54Z</time>
      </trkpt>
      <trkpt lat="43.88934" lon="5.21065">
        <ele>298.15</ele>
        <time>2017-01-11T14:24:11Z</time>
      </trkpt>
      <trkpt lat="43.88918" lon="5.21067">
        <ele>299.11</ele>
        <time>2017-01-11T14:24:28Z</time>
      </trkpt>
      <trkpt lat="43.88903" lon="5.21061">
        <ele>296.7</ele>
        <time>2017-01-11T14:24:43Z</time>
      </trkpt>
      <trkpt lat="43.88898" lon="5.21059">
        <ele>295.74</ele>
        <time>2017-01-11T14:24:48Z</time>
      </trkpt>
      <trkpt lat="43.88882" lon="5.21053">
        <ele>293.34</ele>
        <time>2017-01-11T14:25:04Z</time>
      </trkpt>
      <trkpt lat="43.88869" lon="5.21053">
        <ele>292.38</ele>
        <time>2017-01-11T14:25:18Z</time>
      </trkpt>
      <trkpt lat="43.88857" lon="5.21046">
        <ele>291.42</ele>
        <time>2017-01-11T14:25:33Z</time>
      </trkpt>
      <trkpt lat="43.88843" lon="5.21024">
        <ele>289.01</ele>
        <time>2017-01-11T14:25:52Z</time>
      </trkpt>
      <trkpt lat="43.88831" lon="5.21003">
        <ele>288.05</ele>
        <time>2017-01-11T14:26:09Z</time>
      </trkpt>
      <trkpt lat="43.88814" lon="5.20992">
        <ele>288.05</ele>
        <time>2017-01-11T14:26:26Z</time>
      </trkpt>
      <trkpt lat="43.88799" lon="5.20982">
        <ele>285.65</ele>
        <time>2017-01-11T14:26:42Z</time>
      </trkpt>
      <trkpt lat="43.88783" lon="5.20969">
        <ele>284.69</ele>
        <time>2017-01-11T14:27:00Z</time>
      </trkpt>
      <trkpt lat="43.88766" lon="5.20964">
        <ele>282.28</ele>
        <time>2017-01-11T14:27:16Z</time>
      </trkpt>
      <trkpt lat="43.88751" lon="5.20972">
        <ele>278.92</ele>
        <time>2017-01-11T14:27:32Z</time>
      </trkpt>
      <trkpt lat="43.88735" lon="5.20976">
        <ele>278.44</ele>
        <time>2017-01-11T14:27:48Z</time>
      </trkpt>
      <trkpt lat="43.88714" lon="5.20976">
        <ele>276.52</ele>
        <time>2017-01-11T14:28:06Z</time>
      </trkpt>
      <trkpt lat="43.88704" lon="5.20972">
        <ele>275.07</ele>
        <time>2017-01-11T14:28:16Z</time>
      </trkpt>
      <trkpt lat="43.88688" lon="5.20959">
        <ele>275.56</ele>
        <time>2017-01-11T14:28:33Z</time>
      </trkpt>
      <trkpt lat="43.88673" lon="5.20946">
        <ele>276.04</ele>
        <time>2017-01-11T14:28:50Z</time>
      </trkpt>
      <trkpt lat="43.88662" lon="5.20938">
        <ele>273.63</ele>
        <time>2017-01-11T14:29:06Z</time>
      </trkpt>
      <trkpt lat="43.88657" lon="5.20934">
        <ele>273.63</ele>
        <time>2017-01-11T14:29:19Z</time>
      </trkpt>
      <trkpt lat="43.88656" lon="5.20936">
        <ele>276.52</ele>
        <time>2017-01-11T14:29:49Z</time>
      </trkpt>
      <trkpt lat="43.88658" lon="5.20934">
        <ele>279.88</ele>
        <time>2017-01-11T14:30:16Z</time>
      </trkpt>
      <trkpt lat="43.88655" lon="5.2093">
        <ele>280.36</ele>
        <time>2017-01-11T14:30:35Z</time>
      </trkpt>
      <trkpt lat="43.88655" lon="5.2093">
        <ele>281.8</ele>
        <time>2017-01-11T14:31:02Z</time>
      </trkpt>
      <trkpt lat="43.88655" lon="5.2093">
        <ele>281.8</ele>
        <time>2017-01-11T14:31:30Z</time>
      </trkpt>
      <trkpt lat="43.88657" lon="5.20932">
        <ele>282.77</ele>
        <time>2017-01-11T14:31:55Z</time>
      </trkpt>
      <trkpt lat="43.88655" lon="5.20931">
        <ele>283.25</ele>
        <time>2017-01-11T14:32:18Z</time>
      </trkpt>
      <trkpt lat="43.88653" lon="5.20938">
        <ele>283.25</ele>
        <time>2017-01-11T14:32:26Z</time>
      </trkpt>
      <trkpt lat="43.88653" lon="5.20963">
        <ele>284.69</ele>
        <time>2017-01-11T14:32:44Z</time>
      </trkpt>
      <trkpt lat="43.88652" lon="5.20986">
        <ele>285.65</ele>
        <time>2017-01-11T14:33:01Z</time>
      </trkpt>
      <trkpt lat="43.88649" lon="5.21008">
        <ele>287.09</ele>
        <time>2017-01-11T14:33:17Z</time>
      </trkpt>
      <trkpt lat="43.88641" lon="5.21035">
        <ele>284.69</ele>
        <time>2017-01-11T14:33:34Z</time>
      </trkpt>
      <trkpt lat="43.88633" lon="5.21053">
        <ele>282.77</ele>
        <time>2017-01-11T14:33:48Z</time>
      </trkpt>
      <trkpt lat="43.88623" lon="5.21071">
        <ele>281.32</ele>
        <time>2017-01-11T14:34:04Z</time>
      </trkpt>
      <trkpt lat="43.88607" lon="5.21089">
        <ele>282.28</ele>
        <time>2017-01-11T14:34:21Z</time>
      </trkpt>
      <trkpt lat="43.88594" lon="5.21105">
        <ele>281.8</ele>
        <time>2017-01-11T14:34:36Z</time>
      </trkpt>
      <trkpt lat="43.8858" lon="5.21121">
        <ele>280.36</ele>
        <time>2017-01-11T14:34:53Z</time>
      </trkpt>
      <trkpt lat="43.88567" lon="5.21139">
        <ele>278.92</ele>
        <time>2017-01-11T14:35:10Z</time>
      </trkpt>
      <trkpt lat="43.88553" lon="5.21153">
        <ele>275.07</ele>
        <time>2017-01-11T14:35:26Z</time>
      </trkpt>
      <trkpt lat="43.88538" lon="5.21167">
        <ele>272.19</ele>
        <time>2017-01-11T14:35:43Z</time>
      </trkpt>
      <trkpt lat="43.88526" lon="5.21176">
        <ele>268.83</ele>
        <time>2017-01-11T14:35:58Z</time>
      </trkpt>
      <trkpt lat="43.88516" lon="5.21179">
        <ele>267.86</ele>
        <time>2017-01-11T14:36:07Z</time>
      </trkpt>
      <trkpt lat="43.88503" lon="5.21184">
        <ele>266.9</ele>
        <time>2017-01-11T14:36:22Z</time>
      </trkpt>
      <trkpt lat="43.88487" lon="5.2118">
        <ele>263.54</ele>
        <time>2017-01-11T14:36:38Z</time>
      </trkpt>
      <trkpt lat="43.88472" lon="5.21175">
        <ele>260.17</ele>
        <time>2017-01-11T14:36:55Z</time>
      </trkpt>
      <trkpt lat="43.88459" lon="5.21172">
        <ele>261.62</ele>
        <time>2017-01-11T14:37:10Z</time>
      </trkpt>
      <trkpt lat="43.8845" lon="5.21167">
        <ele>262.1</ele>
        <time>2017-01-11T14:37:24Z</time>
      </trkpt>
      <trkpt lat="43.88445" lon="5.21162">
        <ele>261.14</ele>
        <time>2017-01-11T14:37:37Z</time>
      </trkpt>
      <trkpt lat="43.88434" lon="5.21155">
        <ele>262.1</ele>
        <time>2017-01-11T14:37:53Z</time>
      </trkpt>
      <trkpt lat="43.88423" lon="5.21154">
        <ele>265.46</ele>
        <time>2017-01-11T14:38:09Z</time>
      </trkpt>
      <trkpt lat="43.88419" lon="5.21159">
        <ele>267.38</ele>
        <time>2017-01-11T14:38:23Z</time>
      </trkpt>
      <trkpt lat="43.88419" lon="5.21157">
        <ele>267.38</ele>
        <time>2017-01-11T14:38:40Z</time>
      </trkpt>
      <trkpt lat="43.88423" lon="5.21157">
        <ele>267.86</ele>
        <time>2017-01-11T14:39:00Z</time>
      </trkpt>
      <trkpt lat="43.88421" lon="5.21156">
        <ele>267.38</ele>
        <time>2017-01-11T14:39:14Z</time>
      </trkpt>
      <trkpt lat="43.8842" lon="5.21154">
        <ele>268.83</ele>
        <time>2017-01-11T14:39:34Z</time>
      </trkpt>
      <trkpt lat="43.88418" lon="5.21144">
        <ele>268.83</ele>
        <time>2017-01-11T14:39:47Z</time>
      </trkpt>
      <trkpt lat="43.88417" lon="5.21144">
        <ele>270.75</ele>
        <time>2017-01-11T14:40:05Z</time>
      </trkpt>
      <trkpt lat="43.88417" lon="5.21149">
        <ele>269.31</ele>
        <time>2017-01-11T14:40:18Z</time>
      </trkpt>
      <trkpt lat="43.88418" lon="5.21153">
        <ele>267.86</ele>
        <time>2017-01-11T14:40:30Z</time>
      </trkpt>
      <trkpt lat="43.88421" lon="5.21156">
        <ele>269.79</ele>
        <time>2017-01-11T14:40:44Z</time>
      </trkpt>
      <trkpt lat="43.88425" lon="5.2116">
        <ele>268.35</ele>
        <time>2017-01-11T14:41:01Z</time>
      </trkpt>
      <trkpt lat="43.88426" lon="5.21158">
        <ele>268.35</ele>
        <time>2017-01-11T14:41:03Z</time>
      </trkpt>
      <trkpt lat="43.88435" lon="5.21155">
        <ele>266.42</ele>
        <time>2017-01-11T14:41:17Z</time>
      </trkpt>
      <trkpt lat="43.88439" lon="5.21159">
        <ele>266.9</ele>
        <time>2017-01-11T14:41:32Z</time>
      </trkpt>
      <trkpt lat="43.88442" lon="5.21162">
        <ele>265.46</ele>
        <time>2017-01-11T14:41:46Z</time>
      </trkpt>
      <trkpt lat="43.88452" lon="5.21168">
        <ele>264.02</ele>
        <time>2017-01-11T14:42:03Z</time>
      </trkpt>
      <trkpt lat="43.88459" lon="5.21171">
        <ele>263.06</ele>
        <time>2017-01-11T14:42:17Z</time>
      </trkpt>
      <trkpt lat="43.88465" lon="5.21177">
        <ele>261.62</ele>
        <time>2017-01-11T14:42:31Z</time>
      </trkpt>
      <trkpt lat="43.88468" lon="5.21178">
        <ele>260.65</ele>
        <time>2017-01-11T14:42:45Z</time>
      </trkpt>
      <trkpt lat="43.88471" lon="5.21192">
        <ele>258.25</ele>
        <time>2017-01-11T14:43:02Z</time>
      </trkpt>
      <trkpt lat="43.88481" lon="5.21211">
        <ele>256.33</ele>
        <time>2017-01-11T14:43:20Z</time>
      </trkpt>
      <trkpt lat="43.88482" lon="5.21216">
        <ele>256.33</ele>
        <time>2017-01-11T14:43:24Z</time>
      </trkpt>
      <trkpt lat="43.88476" lon="5.21236">
        <ele>253.44</ele>
        <time>2017-01-11T14:43:40Z</time>
      </trkpt>
      <trkpt lat="43.88461" lon="5.21244">
        <ele>250.08</ele>
        <time>2017-01-11T14:43:57Z</time>
      </trkpt>
      <trkpt lat="43.88457" lon="5.21247">
        <ele>249.6</ele>
        <time>2017-01-11T14:44:01Z</time>
      </trkpt>
      <trkpt lat="43.88435" lon="5.21261">
        <ele>248.64</ele>
        <time>2017-01-11T14:44:23Z</time>
      </trkpt>
      <trkpt lat="43.88414" lon="5.21272">
        <ele>249.12</ele>
        <time>2017-01-11T14:44:42Z</time>
      </trkpt>
      <trkpt lat="43.88392" lon="5.21281">
        <ele>247.68</ele>
        <time>2017-01-11T14:45:03Z</time>
      </trkpt>
      <trkpt lat="43.88372" lon="5.21287">
        <ele>247.2</ele>
        <time>2017-01-11T14:45:22Z</time>
      </trkpt>
      <trkpt lat="43.88354" lon="5.21279">
        <ele>248.16</ele>
        <time>2017-01-11T14:45:38Z</time>
      </trkpt>
      <trkpt lat="43.88339" lon="5.2127">
        <ele>248.64</ele>
        <time>2017-01-11T14:45:55Z</time>
      </trkpt>
      <trkpt lat="43.88324" lon="5.2127">
        <ele>247.68</ele>
        <time>2017-01-11T14:46:10Z</time>
      </trkpt>
      <trkpt lat="43.88306" lon="5.21265">
        <ele>243.83</ele>
        <time>2017-01-11T14:46:28Z</time>
      </trkpt>
      <trkpt lat="43.88297" lon="5.21262">
        <ele>242.87</ele>
        <time>2017-01-11T14:46:43Z</time>
      </trkpt>
      <trkpt lat="43.88284" lon="5.21268">
        <ele>239.02</ele>
        <time>2017-01-11T14:46:58Z</time>
      </trkpt>
      <trkpt lat="43.88274" lon="5.21278">
        <ele>235.66</ele>
        <time>2017-01-11T14:47:14Z</time>
      </trkpt>
      <trkpt lat="43.88265" lon="5.21284">
        <ele>234.22</ele>
        <time>2017-01-11T14:47:26Z</time>
      </trkpt>
      <trkpt lat="43.88241" lon="5.21289">
        <ele>228.45</ele>
        <time>2017-01-11T14:47:48Z</time>
      </trkpt>
      <trkpt lat="43.88225" lon="5.21301">
        <ele>227.49</ele>
        <time>2017-01-11T14:48:04Z</time>
      </trkpt>
      <trkpt lat="43.88211" lon="5.21309">
        <ele>224.12</ele>
        <time>2017-01-11T14:48:19Z</time>
      </trkpt>
      <trkpt lat="43.88195" lon="5.21311">
        <ele>226.53</ele>
        <time>2017-01-11T14:48:34Z</time>
      </trkpt>
      <trkpt lat="43.88176" lon="5.21309">
        <ele>227.01</ele>
        <time>2017-01-11T14:48:50Z</time>
      </trkpt>
      <trkpt lat="43.88162" lon="5.21307">
        <ele>226.05</ele>
        <time>2017-01-11T14:49:05Z</time>
      </trkpt>
      <trkpt lat="43.88162" lon="5.21317">
        <ele>227.49</ele>
        <time>2017-01-11T14:49:13Z</time>
      </trkpt>
      <trkpt lat="43.88165" lon="5.21325">
        <ele>228.93</ele>
        <time>2017-01-11T14:49:20Z</time>
      </trkpt>
      <trkpt lat="43.88178" lon="5.21339">
        <ele>230.85</ele>
        <time>2017-01-11T14:49:38Z</time>
      </trkpt>
      <trkpt lat="43.88189" lon="5.21349">
        <ele>231.81</ele>
        <time>2017-01-11T14:49:54Z</time>
      </trkpt>
      <trkpt lat="43.88194" lon="5.21353">
        <ele>232.3</ele>
        <time>2017-01-11T14:50:06Z</time>
      </trkpt>
      <trkpt lat="43.88196" lon="5.21357">
        <ele>233.26</ele>
        <time>2017-01-11T14:50:20Z</time>
      </trkpt>
      <trkpt lat="43.88199" lon="5.21362">
        <ele>233.74</ele>
        <time>2017-01-11T14:50:38Z</time>
      </trkpt>
      <trkpt lat="43.882" lon="5.21361">
        <ele>233.74</ele>
        <time>2017-01-11T14:50:49Z</time>
      </trkpt>
      <trkpt lat="43.882" lon="5.21361">
        <ele>234.22</ele>
        <time>2017-01-11T14:51:06Z</time>
      </trkpt>
      <trkpt lat="43.88201" lon="5.21366">
        <ele>234.22</ele>
        <time>2017-01-11T14:51:10Z</time>
      </trkpt>
      <trkpt lat="43.88203" lon="5.21373">
        <ele>234.22</ele>
        <time>2017-01-11T14:51:14Z</time>
      </trkpt>
      <trkpt lat="43.88204" lon="5.21379">
        <ele>234.7</ele>
        <time>2017-01-11T14:51:18Z</time>
      </trkpt>
      <trkpt lat="43.88203" lon="5.21388">
        <ele>234.7</ele>
        <time>2017-01-11T14:51:23Z</time>
      </trkpt>
      <trkpt lat="43.88209" lon="5.21407">
        <ele>232.78</ele>
        <time>2017-01-11T14:51:41Z</time>
      </trkpt>
      <trkpt lat="43.88214" lon="5.21421">
        <ele>231.81</ele>
        <time>2017-01-11T14:51:56Z</time>
      </trkpt>
    </trkseg>
  </trk>
</gpx>